<?xml version="1.0" encoding="UTF-8" standalone="no" ?>
<gpx xmlns="http://www.topografix.com/GPX/1/1" xmlns:xsi="http://www.w3.org/2001/XMLSchema-instance" xsi:schemaLocation="http://www.topografix.com/GPX/1/1 http://www.topografix.com/GPX/1/1/gpx.xsd" version="1.1" creator="VisuGPX - https://www.visugpx.com">
  <metadata>
    <name>Les crêtes du Mont Veyrier</name>
    <desc><![CDATA[Randonnée caf]]></desc>
  </metadata>
  <trk>
    <name><![CDATA[Veyrier 1]]></name>
    <trkseg>
      <trkpt lat="45.90643" lon="6.15705">
        <ele>458</ele>
        <time>2013-05-05T09:05:15Z</time>
      </trkpt>
      <trkpt lat="45.90642" lon="6.15705">
        <ele>459</ele>
        <time>2013-05-05T09:05:32Z</time>
      </trkpt>
      <trkpt lat="45.90644" lon="6.15705">
        <ele>459</ele>
        <time>2013-05-05T09:06:28Z</time>
      </trkpt>
      <trkpt lat="45.90643" lon="6.15703">
        <ele>451</ele>
        <time>2013-05-05T09:06:43Z</time>
      </trkpt>
      <trkpt lat="45.90643" lon="6.15703">
        <ele>465</ele>
        <time>2013-05-05T09:06:44Z</time>
      </trkpt>
      <trkpt lat="45.90643" lon="6.15703">
        <ele>459</ele>
        <time>2013-05-05T09:06:45Z</time>
      </trkpt>
      <trkpt lat="45.9064" lon="6.1571">
        <ele>458</ele>
        <time>2013-05-05T09:07:08Z</time>
      </trkpt>
      <trkpt lat="45.90639" lon="6.15713">
        <ele>457</ele>
        <time>2013-05-05T09:07:42Z</time>
      </trkpt>
      <trkpt lat="45.90637" lon="6.15716">
        <ele>457</ele>
        <time>2013-05-05T09:08:12Z</time>
      </trkpt>
      <trkpt lat="45.90638" lon="6.15711">
        <ele>457</ele>
        <time>2013-05-05T09:08:47Z</time>
      </trkpt>
      <trkpt lat="45.90635" lon="6.15721">
        <ele>460</ele>
        <time>2013-05-05T09:09:05Z</time>
      </trkpt>
      <trkpt lat="45.90632" lon="6.15735">
        <ele>459</ele>
        <time>2013-05-05T09:09:19Z</time>
      </trkpt>
      <trkpt lat="45.90628" lon="6.15758">
        <ele>457</ele>
        <time>2013-05-05T09:09:38Z</time>
      </trkpt>
      <trkpt lat="45.9062" lon="6.15783">
        <ele>457</ele>
        <time>2013-05-05T09:09:58Z</time>
      </trkpt>
      <trkpt lat="45.90617" lon="6.15786">
        <ele>458</ele>
        <time>2013-05-05T09:10:03Z</time>
      </trkpt>
      <trkpt lat="45.90596" lon="6.15792">
        <ele>457</ele>
        <time>2013-05-05T09:10:21Z</time>
      </trkpt>
      <trkpt lat="45.90591" lon="6.15803">
        <ele>458</ele>
        <time>2013-05-05T09:10:30Z</time>
      </trkpt>
      <trkpt lat="45.90588" lon="6.15816">
        <ele>458</ele>
        <time>2013-05-05T09:10:38Z</time>
      </trkpt>
      <trkpt lat="45.90587" lon="6.15843">
        <ele>458</ele>
        <time>2013-05-05T09:10:55Z</time>
      </trkpt>
      <trkpt lat="45.90577" lon="6.15856">
        <ele>458</ele>
        <time>2013-05-05T09:11:08Z</time>
      </trkpt>
      <trkpt lat="45.90558" lon="6.15866">
        <ele>457</ele>
        <time>2013-05-05T09:11:23Z</time>
      </trkpt>
      <trkpt lat="45.90542" lon="6.15877">
        <ele>456</ele>
        <time>2013-05-05T09:11:37Z</time>
      </trkpt>
      <trkpt lat="45.90527" lon="6.1589">
        <ele>457</ele>
        <time>2013-05-05T09:11:53Z</time>
      </trkpt>
      <trkpt lat="45.90519" lon="6.15898">
        <ele>456</ele>
        <time>2013-05-05T09:12:02Z</time>
      </trkpt>
      <trkpt lat="45.9051" lon="6.15906">
        <ele>456</ele>
        <time>2013-05-05T09:12:11Z</time>
      </trkpt>
      <trkpt lat="45.90495" lon="6.15927">
        <ele>457</ele>
        <time>2013-05-05T09:12:29Z</time>
      </trkpt>
      <trkpt lat="45.90487" lon="6.15935">
        <ele>456</ele>
        <time>2013-05-05T09:12:39Z</time>
      </trkpt>
      <trkpt lat="45.90479" lon="6.1594">
        <ele>457</ele>
        <time>2013-05-05T09:12:47Z</time>
      </trkpt>
      <trkpt lat="45.90461" lon="6.15955">
        <ele>457</ele>
        <time>2013-05-05T09:13:04Z</time>
      </trkpt>
      <trkpt lat="45.90443" lon="6.15968">
        <ele>457</ele>
        <time>2013-05-05T09:13:21Z</time>
      </trkpt>
      <trkpt lat="45.9044" lon="6.1597">
        <ele>456</ele>
        <time>2013-05-05T09:13:24Z</time>
      </trkpt>
      <trkpt lat="45.90431" lon="6.15974">
        <ele>457</ele>
        <time>2013-05-05T09:13:31Z</time>
      </trkpt>
      <trkpt lat="45.90411" lon="6.15981">
        <ele>456</ele>
        <time>2013-05-05T09:13:48Z</time>
      </trkpt>
      <trkpt lat="45.90399" lon="6.15988">
        <ele>457</ele>
        <time>2013-05-05T09:14:05Z</time>
      </trkpt>
      <trkpt lat="45.90395" lon="6.15993">
        <ele>459</ele>
        <time>2013-05-05T09:14:16Z</time>
      </trkpt>
      <trkpt lat="45.90392" lon="6.16014">
        <ele>461</ele>
        <time>2013-05-05T09:14:32Z</time>
      </trkpt>
      <trkpt lat="45.9039" lon="6.16027">
        <ele>461</ele>
        <time>2013-05-05T09:14:47Z</time>
      </trkpt>
      <trkpt lat="45.90394" lon="6.16042">
        <ele>463</ele>
        <time>2013-05-05T09:15:02Z</time>
      </trkpt>
      <trkpt lat="45.90397" lon="6.1605">
        <ele>465</ele>
        <time>2013-05-05T09:15:11Z</time>
      </trkpt>
      <trkpt lat="45.90397" lon="6.16052">
        <ele>463</ele>
        <time>2013-05-05T09:15:13Z</time>
      </trkpt>
      <trkpt lat="45.904" lon="6.16057">
        <ele>467</ele>
        <time>2013-05-05T09:15:18Z</time>
      </trkpt>
      <trkpt lat="45.90404" lon="6.16067">
        <ele>466</ele>
        <time>2013-05-05T09:15:29Z</time>
      </trkpt>
      <trkpt lat="45.90409" lon="6.1608">
        <ele>468</ele>
        <time>2013-05-05T09:15:42Z</time>
      </trkpt>
      <trkpt lat="45.90413" lon="6.16098">
        <ele>471</ele>
        <time>2013-05-05T09:15:59Z</time>
      </trkpt>
      <trkpt lat="45.90418" lon="6.16111">
        <ele>473</ele>
        <time>2013-05-05T09:16:15Z</time>
      </trkpt>
      <trkpt lat="45.90418" lon="6.16114">
        <ele>474</ele>
        <time>2013-05-05T09:16:17Z</time>
      </trkpt>
      <trkpt lat="45.90424" lon="6.16127">
        <ele>476</ele>
        <time>2013-05-05T09:16:30Z</time>
      </trkpt>
      <trkpt lat="45.90425" lon="6.1613">
        <ele>476</ele>
        <time>2013-05-05T09:16:33Z</time>
      </trkpt>
      <trkpt lat="45.90431" lon="6.16139">
        <ele>477</ele>
        <time>2013-05-05T09:16:43Z</time>
      </trkpt>
      <trkpt lat="45.90438" lon="6.16151">
        <ele>480</ele>
        <time>2013-05-05T09:16:55Z</time>
      </trkpt>
      <trkpt lat="45.90439" lon="6.16153">
        <ele>479</ele>
        <time>2013-05-05T09:16:58Z</time>
      </trkpt>
      <trkpt lat="45.90442" lon="6.16158">
        <ele>481</ele>
        <time>2013-05-05T09:17:03Z</time>
      </trkpt>
      <trkpt lat="45.90444" lon="6.16162">
        <ele>482</ele>
        <time>2013-05-05T09:17:08Z</time>
      </trkpt>
      <trkpt lat="45.90446" lon="6.16167">
        <ele>483</ele>
        <time>2013-05-05T09:17:13Z</time>
      </trkpt>
      <trkpt lat="45.90454" lon="6.16178">
        <ele>486</ele>
        <time>2013-05-05T09:17:29Z</time>
      </trkpt>
      <trkpt lat="45.90456" lon="6.16184">
        <ele>487</ele>
        <time>2013-05-05T09:17:38Z</time>
      </trkpt>
      <trkpt lat="45.90457" lon="6.16199">
        <ele>489</ele>
        <time>2013-05-05T09:17:52Z</time>
      </trkpt>
      <trkpt lat="45.90457" lon="6.16206">
        <ele>491</ele>
        <time>2013-05-05T09:18:04Z</time>
      </trkpt>
      <trkpt lat="45.90457" lon="6.16209">
        <ele>492</ele>
        <time>2013-05-05T09:18:09Z</time>
      </trkpt>
      <trkpt lat="45.90455" lon="6.16218">
        <ele>493</ele>
        <time>2013-05-05T09:18:21Z</time>
      </trkpt>
      <trkpt lat="45.90457" lon="6.16228">
        <ele>496</ele>
        <time>2013-05-05T09:18:31Z</time>
      </trkpt>
      <trkpt lat="45.90458" lon="6.16247">
        <ele>500</ele>
        <time>2013-05-05T09:18:47Z</time>
      </trkpt>
      <trkpt lat="45.90459" lon="6.16256">
        <ele>500</ele>
        <time>2013-05-05T09:18:59Z</time>
      </trkpt>
      <trkpt lat="45.90458" lon="6.16266">
        <ele>501</ele>
        <time>2013-05-05T09:19:10Z</time>
      </trkpt>
      <trkpt lat="45.90457" lon="6.16273">
        <ele>505</ele>
        <time>2013-05-05T09:19:16Z</time>
      </trkpt>
      <trkpt lat="45.90457" lon="6.16274">
        <ele>504</ele>
        <time>2013-05-05T09:19:17Z</time>
      </trkpt>
      <trkpt lat="45.90457" lon="6.16287">
        <ele>506</ele>
        <time>2013-05-05T09:19:30Z</time>
      </trkpt>
      <trkpt lat="45.90456" lon="6.16297">
        <ele>507</ele>
        <time>2013-05-05T09:19:43Z</time>
      </trkpt>
      <trkpt lat="45.90454" lon="6.16303">
        <ele>510</ele>
        <time>2013-05-05T09:19:56Z</time>
      </trkpt>
      <trkpt lat="45.90453" lon="6.16318">
        <ele>510</ele>
        <time>2013-05-05T09:20:10Z</time>
      </trkpt>
      <trkpt lat="45.90455" lon="6.16323">
        <ele>513</ele>
        <time>2013-05-05T09:20:17Z</time>
      </trkpt>
      <trkpt lat="45.90453" lon="6.16337">
        <ele>516</ele>
        <time>2013-05-05T09:20:28Z</time>
      </trkpt>
      <trkpt lat="45.90455" lon="6.1635">
        <ele>520</ele>
        <time>2013-05-05T09:20:40Z</time>
      </trkpt>
      <trkpt lat="45.90454" lon="6.16356">
        <ele>522</ele>
        <time>2013-05-05T09:20:48Z</time>
      </trkpt>
      <trkpt lat="45.90456" lon="6.16359">
        <ele>521</ele>
        <time>2013-05-05T09:20:50Z</time>
      </trkpt>
      <trkpt lat="45.90456" lon="6.16361">
        <ele>522</ele>
        <time>2013-05-05T09:20:52Z</time>
      </trkpt>
      <trkpt lat="45.90461" lon="6.16369">
        <ele>525</ele>
        <time>2013-05-05T09:21:03Z</time>
      </trkpt>
      <trkpt lat="45.90469" lon="6.16371">
        <ele>526</ele>
        <time>2013-05-05T09:21:19Z</time>
      </trkpt>
      <trkpt lat="45.9047" lon="6.16372">
        <ele>527</ele>
        <time>2013-05-05T09:21:21Z</time>
      </trkpt>
      <trkpt lat="45.90473" lon="6.16375">
        <ele>528</ele>
        <time>2013-05-05T09:21:27Z</time>
      </trkpt>
      <trkpt lat="45.90479" lon="6.16378">
        <ele>529</ele>
        <time>2013-05-05T09:21:33Z</time>
      </trkpt>
      <trkpt lat="45.90485" lon="6.16381">
        <ele>530</ele>
        <time>2013-05-05T09:21:41Z</time>
      </trkpt>
      <trkpt lat="45.90491" lon="6.16384">
        <ele>532</ele>
        <time>2013-05-05T09:21:48Z</time>
      </trkpt>
      <trkpt lat="45.90498" lon="6.16395">
        <ele>533</ele>
        <time>2013-05-05T09:22:00Z</time>
      </trkpt>
      <trkpt lat="45.90509" lon="6.16403">
        <ele>535</ele>
        <time>2013-05-05T09:22:15Z</time>
      </trkpt>
      <trkpt lat="45.90517" lon="6.16395">
        <ele>535</ele>
        <time>2013-05-05T09:22:33Z</time>
      </trkpt>
      <trkpt lat="45.90522" lon="6.16396">
        <ele>535</ele>
        <time>2013-05-05T09:22:55Z</time>
      </trkpt>
      <trkpt lat="45.90524" lon="6.16401">
        <ele>539</ele>
        <time>2013-05-05T09:23:09Z</time>
      </trkpt>
      <trkpt lat="45.90523" lon="6.16401">
        <ele>536</ele>
        <time>2013-05-05T09:23:10Z</time>
      </trkpt>
      <trkpt lat="45.90515" lon="6.164">
        <ele>537</ele>
        <time>2013-05-05T09:23:21Z</time>
      </trkpt>
      <trkpt lat="45.90498" lon="6.16398">
        <ele>539</ele>
        <time>2013-05-05T09:23:34Z</time>
      </trkpt>
      <trkpt lat="45.90485" lon="6.16395">
        <ele>539</ele>
        <time>2013-05-05T09:23:47Z</time>
      </trkpt>
      <trkpt lat="45.90474" lon="6.16394">
        <ele>542</ele>
        <time>2013-05-05T09:23:57Z</time>
      </trkpt>
      <trkpt lat="45.90466" lon="6.164">
        <ele>542</ele>
        <time>2013-05-05T09:24:07Z</time>
      </trkpt>
      <trkpt lat="45.90455" lon="6.16407">
        <ele>542</ele>
        <time>2013-05-05T09:24:23Z</time>
      </trkpt>
      <trkpt lat="45.9045" lon="6.16402">
        <ele>545</ele>
        <time>2013-05-05T09:24:35Z</time>
      </trkpt>
      <trkpt lat="45.90448" lon="6.16413">
        <ele>548</ele>
        <time>2013-05-05T09:24:48Z</time>
      </trkpt>
      <trkpt lat="45.90446" lon="6.1642">
        <ele>550</ele>
        <time>2013-05-05T09:24:53Z</time>
      </trkpt>
      <trkpt lat="45.90452" lon="6.16427">
        <ele>552</ele>
        <time>2013-05-05T09:25:02Z</time>
      </trkpt>
      <trkpt lat="45.9046" lon="6.16433">
        <ele>553</ele>
        <time>2013-05-05T09:25:12Z</time>
      </trkpt>
      <trkpt lat="45.90469" lon="6.16436">
        <ele>555</ele>
        <time>2013-05-05T09:25:25Z</time>
      </trkpt>
      <trkpt lat="45.90472" lon="6.16429">
        <ele>556</ele>
        <time>2013-05-05T09:25:39Z</time>
      </trkpt>
      <trkpt lat="45.90472" lon="6.16425">
        <ele>557</ele>
        <time>2013-05-05T09:25:42Z</time>
      </trkpt>
      <trkpt lat="45.90464" lon="6.16423">
        <ele>559</ele>
        <time>2013-05-05T09:25:55Z</time>
      </trkpt>
      <trkpt lat="45.90455" lon="6.16422">
        <ele>560</ele>
        <time>2013-05-05T09:26:08Z</time>
      </trkpt>
      <trkpt lat="45.90444" lon="6.16423">
        <ele>563</ele>
        <time>2013-05-05T09:26:19Z</time>
      </trkpt>
      <trkpt lat="45.9044" lon="6.16424">
        <ele>563</ele>
        <time>2013-05-05T09:26:24Z</time>
      </trkpt>
      <trkpt lat="45.90427" lon="6.16428">
        <ele>566</ele>
        <time>2013-05-05T09:26:37Z</time>
      </trkpt>
      <trkpt lat="45.90425" lon="6.1644">
        <ele>569</ele>
        <time>2013-05-05T09:26:49Z</time>
      </trkpt>
      <trkpt lat="45.90436" lon="6.16451">
        <ele>573</ele>
        <time>2013-05-05T09:27:08Z</time>
      </trkpt>
      <trkpt lat="45.90443" lon="6.16454">
        <ele>574</ele>
        <time>2013-05-05T09:27:17Z</time>
      </trkpt>
      <trkpt lat="45.90455" lon="6.16465">
        <ele>575</ele>
        <time>2013-05-05T09:27:28Z</time>
      </trkpt>
      <trkpt lat="45.9046" lon="6.16469">
        <ele>577</ele>
        <time>2013-05-05T09:27:38Z</time>
      </trkpt>
      <trkpt lat="45.90471" lon="6.16472">
        <ele>577</ele>
        <time>2013-05-05T09:27:52Z</time>
      </trkpt>
      <trkpt lat="45.90463" lon="6.16469">
        <ele>581</ele>
        <time>2013-05-05T09:28:05Z</time>
      </trkpt>
      <trkpt lat="45.90463" lon="6.16475">
        <ele>584</ele>
        <time>2013-05-05T09:28:20Z</time>
      </trkpt>
      <trkpt lat="45.90471" lon="6.16482">
        <ele>585</ele>
        <time>2013-05-05T09:28:30Z</time>
      </trkpt>
      <trkpt lat="45.90475" lon="6.16487">
        <ele>586</ele>
        <time>2013-05-05T09:28:35Z</time>
      </trkpt>
      <trkpt lat="45.90485" lon="6.16497">
        <ele>588</ele>
        <time>2013-05-05T09:28:47Z</time>
      </trkpt>
      <trkpt lat="45.9049" lon="6.16497">
        <ele>589</ele>
        <time>2013-05-05T09:28:57Z</time>
      </trkpt>
      <trkpt lat="45.90491" lon="6.16491">
        <ele>590</ele>
        <time>2013-05-05T09:29:10Z</time>
      </trkpt>
      <trkpt lat="45.90499" lon="6.16497">
        <ele>593</ele>
        <time>2013-05-05T09:29:23Z</time>
      </trkpt>
      <trkpt lat="45.90505" lon="6.16507">
        <ele>593</ele>
        <time>2013-05-05T09:29:35Z</time>
      </trkpt>
      <trkpt lat="45.90513" lon="6.16511">
        <ele>594</ele>
        <time>2013-05-05T09:29:50Z</time>
      </trkpt>
      <trkpt lat="45.9052" lon="6.16513">
        <ele>596</ele>
        <time>2013-05-05T09:29:57Z</time>
      </trkpt>
      <trkpt lat="45.90526" lon="6.16511">
        <ele>600</ele>
        <time>2013-05-05T09:30:09Z</time>
      </trkpt>
      <trkpt lat="45.90527" lon="6.16512">
        <ele>600</ele>
        <time>2013-05-05T09:30:11Z</time>
      </trkpt>
      <trkpt lat="45.90529" lon="6.1651">
        <ele>598</ele>
        <time>2013-05-05T09:30:13Z</time>
      </trkpt>
      <trkpt lat="45.90531" lon="6.1651">
        <ele>598</ele>
        <time>2013-05-05T09:30:17Z</time>
      </trkpt>
      <trkpt lat="45.90533" lon="6.16512">
        <ele>599</ele>
        <time>2013-05-05T09:30:20Z</time>
      </trkpt>
      <trkpt lat="45.90538" lon="6.16511">
        <ele>601</ele>
        <time>2013-05-05T09:30:26Z</time>
      </trkpt>
      <trkpt lat="45.90545" lon="6.16521">
        <ele>603</ele>
        <time>2013-05-05T09:30:40Z</time>
      </trkpt>
      <trkpt lat="45.90547" lon="6.16522">
        <ele>604</ele>
        <time>2013-05-05T09:30:42Z</time>
      </trkpt>
      <trkpt lat="45.9055" lon="6.16525">
        <ele>604</ele>
        <time>2013-05-05T09:30:46Z</time>
      </trkpt>
      <trkpt lat="45.90551" lon="6.16522">
        <ele>606</ele>
        <time>2013-05-05T09:30:57Z</time>
      </trkpt>
      <trkpt lat="45.90544" lon="6.16521">
        <ele>608</ele>
        <time>2013-05-05T09:31:13Z</time>
      </trkpt>
      <trkpt lat="45.9055" lon="6.16527">
        <ele>609</ele>
        <time>2013-05-05T09:31:26Z</time>
      </trkpt>
      <trkpt lat="45.90549" lon="6.16526">
        <ele>612</ele>
        <time>2013-05-05T09:31:41Z</time>
      </trkpt>
      <trkpt lat="45.90545" lon="6.16528">
        <ele>612</ele>
        <time>2013-05-05T09:31:52Z</time>
      </trkpt>
      <trkpt lat="45.90545" lon="6.16535">
        <ele>616</ele>
        <time>2013-05-05T09:31:58Z</time>
      </trkpt>
      <trkpt lat="45.90547" lon="6.16547">
        <ele>620</ele>
        <time>2013-05-05T09:32:25Z</time>
      </trkpt>
      <trkpt lat="45.90548" lon="6.16547">
        <ele>620</ele>
        <time>2013-05-05T09:32:26Z</time>
      </trkpt>
      <trkpt lat="45.90547" lon="6.16546">
        <ele>622</ele>
        <time>2013-05-05T09:32:41Z</time>
      </trkpt>
      <trkpt lat="45.90546" lon="6.16545">
        <ele>624</ele>
        <time>2013-05-05T09:32:56Z</time>
      </trkpt>
      <trkpt lat="45.90537" lon="6.16541">
        <ele>625</ele>
        <time>2013-05-05T09:33:10Z</time>
      </trkpt>
      <trkpt lat="45.90535" lon="6.16542">
        <ele>626</ele>
        <time>2013-05-05T09:33:12Z</time>
      </trkpt>
      <trkpt lat="45.90525" lon="6.16542">
        <ele>628</ele>
        <time>2013-05-05T09:33:24Z</time>
      </trkpt>
      <trkpt lat="45.90519" lon="6.16545">
        <ele>629</ele>
        <time>2013-05-05T09:33:36Z</time>
      </trkpt>
      <trkpt lat="45.90516" lon="6.16545">
        <ele>632</ele>
        <time>2013-05-05T09:33:48Z</time>
      </trkpt>
      <trkpt lat="45.90513" lon="6.16547">
        <ele>635</ele>
        <time>2013-05-05T09:34:04Z</time>
      </trkpt>
      <trkpt lat="45.90509" lon="6.16546">
        <ele>637</ele>
        <time>2013-05-05T09:34:14Z</time>
      </trkpt>
      <trkpt lat="45.90506" lon="6.16549">
        <ele>637</ele>
        <time>2013-05-05T09:34:20Z</time>
      </trkpt>
      <trkpt lat="45.90502" lon="6.16547">
        <ele>640</ele>
        <time>2013-05-05T09:34:29Z</time>
      </trkpt>
      <trkpt lat="45.90497" lon="6.16548">
        <ele>642</ele>
        <time>2013-05-05T09:34:36Z</time>
      </trkpt>
      <trkpt lat="45.90489" lon="6.16546">
        <ele>643</ele>
        <time>2013-05-05T09:34:47Z</time>
      </trkpt>
      <trkpt lat="45.90474" lon="6.16545">
        <ele>645</ele>
        <time>2013-05-05T09:35:01Z</time>
      </trkpt>
      <trkpt lat="45.90461" lon="6.16548">
        <ele>647</ele>
        <time>2013-05-05T09:35:17Z</time>
      </trkpt>
      <trkpt lat="45.90468" lon="6.16562">
        <ele>650</ele>
        <time>2013-05-05T09:35:30Z</time>
      </trkpt>
      <trkpt lat="45.90469" lon="6.16563">
        <ele>650</ele>
        <time>2013-05-05T09:35:31Z</time>
      </trkpt>
      <trkpt lat="45.90473" lon="6.16568">
        <ele>650</ele>
        <time>2013-05-05T09:35:35Z</time>
      </trkpt>
      <trkpt lat="45.90482" lon="6.16571">
        <ele>650</ele>
        <time>2013-05-05T09:35:47Z</time>
      </trkpt>
      <trkpt lat="45.90484" lon="6.16573">
        <ele>653</ele>
        <time>2013-05-05T09:35:54Z</time>
      </trkpt>
      <trkpt lat="45.90484" lon="6.16573">
        <ele>653</ele>
        <time>2013-05-05T09:35:55Z</time>
      </trkpt>
      <trkpt lat="45.90487" lon="6.16578">
        <ele>654</ele>
        <time>2013-05-05T09:36:04Z</time>
      </trkpt>
      <trkpt lat="45.90488" lon="6.16576">
        <ele>658</ele>
        <time>2013-05-05T09:36:17Z</time>
      </trkpt>
      <trkpt lat="45.90494" lon="6.16588">
        <ele>659</ele>
        <time>2013-05-05T09:36:30Z</time>
      </trkpt>
      <trkpt lat="45.90501" lon="6.16595">
        <ele>661</ele>
        <time>2013-05-05T09:36:40Z</time>
      </trkpt>
      <trkpt lat="45.90512" lon="6.16601">
        <ele>666</ele>
        <time>2013-05-05T09:36:53Z</time>
      </trkpt>
      <trkpt lat="45.90521" lon="6.16606">
        <ele>665</ele>
        <time>2013-05-05T09:37:06Z</time>
      </trkpt>
      <trkpt lat="45.90532" lon="6.16612">
        <ele>668</ele>
        <time>2013-05-05T09:37:22Z</time>
      </trkpt>
      <trkpt lat="45.90524" lon="6.16609">
        <ele>668</ele>
        <time>2013-05-05T09:37:36Z</time>
      </trkpt>
      <trkpt lat="45.90516" lon="6.16613">
        <ele>671</ele>
        <time>2013-05-05T09:37:49Z</time>
      </trkpt>
      <trkpt lat="45.90519" lon="6.16625">
        <ele>674</ele>
        <time>2013-05-05T09:38:01Z</time>
      </trkpt>
      <trkpt lat="45.9052" lon="6.16626">
        <ele>673</ele>
        <time>2013-05-05T09:38:02Z</time>
      </trkpt>
      <trkpt lat="45.90528" lon="6.1663">
        <ele>675</ele>
        <time>2013-05-05T09:38:15Z</time>
      </trkpt>
      <trkpt lat="45.90535" lon="6.16634">
        <ele>678</ele>
        <time>2013-05-05T09:38:27Z</time>
      </trkpt>
      <trkpt lat="45.90539" lon="6.16638">
        <ele>679</ele>
        <time>2013-05-05T09:38:33Z</time>
      </trkpt>
      <trkpt lat="45.90543" lon="6.16643">
        <ele>682</ele>
        <time>2013-05-05T09:38:43Z</time>
      </trkpt>
      <trkpt lat="45.90552" lon="6.16652">
        <ele>683</ele>
        <time>2013-05-05T09:38:56Z</time>
      </trkpt>
      <trkpt lat="45.90556" lon="6.16656">
        <ele>684</ele>
        <time>2013-05-05T09:39:04Z</time>
      </trkpt>
      <trkpt lat="45.90563" lon="6.16665">
        <ele>687</ele>
        <time>2013-05-05T09:39:16Z</time>
      </trkpt>
      <trkpt lat="45.90569" lon="6.1667">
        <ele>689</ele>
        <time>2013-05-05T09:39:28Z</time>
      </trkpt>
      <trkpt lat="45.9057" lon="6.16672">
        <ele>690</ele>
        <time>2013-05-05T09:39:33Z</time>
      </trkpt>
      <trkpt lat="45.90579" lon="6.16683">
        <ele>691</ele>
        <time>2013-05-05T09:39:51Z</time>
      </trkpt>
      <trkpt lat="45.90584" lon="6.16682">
        <ele>693</ele>
        <time>2013-05-05T09:39:55Z</time>
      </trkpt>
      <trkpt lat="45.90598" lon="6.16675">
        <ele>694</ele>
        <time>2013-05-05T09:40:12Z</time>
      </trkpt>
      <trkpt lat="45.90599" lon="6.16673">
        <ele>695</ele>
        <time>2013-05-05T09:40:14Z</time>
      </trkpt>
      <trkpt lat="45.90608" lon="6.16667">
        <ele>696</ele>
        <time>2013-05-05T09:40:29Z</time>
      </trkpt>
      <trkpt lat="45.90617" lon="6.16661">
        <ele>698</ele>
        <time>2013-05-05T09:40:44Z</time>
      </trkpt>
      <trkpt lat="45.90615" lon="6.16663">
        <ele>701</ele>
        <time>2013-05-05T09:40:51Z</time>
      </trkpt>
      <trkpt lat="45.90613" lon="6.16665">
        <ele>700</ele>
        <time>2013-05-05T09:40:54Z</time>
      </trkpt>
      <trkpt lat="45.90608" lon="6.16673">
        <ele>702</ele>
        <time>2013-05-05T09:41:05Z</time>
      </trkpt>
      <trkpt lat="45.90606" lon="6.16678">
        <ele>704</ele>
        <time>2013-05-05T09:41:12Z</time>
      </trkpt>
      <trkpt lat="45.906" lon="6.16687">
        <ele>705</ele>
        <time>2013-05-05T09:41:25Z</time>
      </trkpt>
      <trkpt lat="45.90597" lon="6.16695">
        <ele>707</ele>
        <time>2013-05-05T09:41:36Z</time>
      </trkpt>
      <trkpt lat="45.90605" lon="6.16701">
        <ele>710</ele>
        <time>2013-05-05T09:41:48Z</time>
      </trkpt>
      <trkpt lat="45.90616" lon="6.16699">
        <ele>711</ele>
        <time>2013-05-05T09:42:04Z</time>
      </trkpt>
      <trkpt lat="45.90624" lon="6.16693">
        <ele>713</ele>
        <time>2013-05-05T09:42:16Z</time>
      </trkpt>
      <trkpt lat="45.90628" lon="6.16688">
        <ele>715</ele>
        <time>2013-05-05T09:42:22Z</time>
      </trkpt>
      <trkpt lat="45.90632" lon="6.16687">
        <ele>717</ele>
        <time>2013-05-05T09:42:30Z</time>
      </trkpt>
      <trkpt lat="45.9063" lon="6.16686">
        <ele>718</ele>
        <time>2013-05-05T09:42:38Z</time>
      </trkpt>
      <trkpt lat="45.90628" lon="6.16689">
        <ele>719</ele>
        <time>2013-05-05T09:42:43Z</time>
      </trkpt>
      <trkpt lat="45.90622" lon="6.16698">
        <ele>720</ele>
        <time>2013-05-05T09:42:57Z</time>
      </trkpt>
      <trkpt lat="45.90618" lon="6.16707">
        <ele>722</ele>
        <time>2013-05-05T09:43:12Z</time>
      </trkpt>
      <trkpt lat="45.90624" lon="6.16716">
        <ele>723</ele>
        <time>2013-05-05T09:43:23Z</time>
      </trkpt>
      <trkpt lat="45.9063" lon="6.16718">
        <ele>725</ele>
        <time>2013-05-05T09:43:33Z</time>
      </trkpt>
      <trkpt lat="45.90639" lon="6.16714">
        <ele>726</ele>
        <time>2013-05-05T09:43:44Z</time>
      </trkpt>
      <trkpt lat="45.90649" lon="6.1671">
        <ele>727</ele>
        <time>2013-05-05T09:43:59Z</time>
      </trkpt>
      <trkpt lat="45.90654" lon="6.16712">
        <ele>731</ele>
        <time>2013-05-05T09:44:08Z</time>
      </trkpt>
      <trkpt lat="45.90661" lon="6.16711">
        <ele>732</ele>
        <time>2013-05-05T09:44:20Z</time>
      </trkpt>
      <trkpt lat="45.90671" lon="6.16713">
        <ele>734</ele>
        <time>2013-05-05T09:44:34Z</time>
      </trkpt>
      <trkpt lat="45.90678" lon="6.16714">
        <ele>735</ele>
        <time>2013-05-05T09:44:44Z</time>
      </trkpt>
      <trkpt lat="45.90684" lon="6.16716">
        <ele>737</ele>
        <time>2013-05-05T09:44:58Z</time>
      </trkpt>
      <trkpt lat="45.90692" lon="6.1672">
        <ele>738</ele>
        <time>2013-05-05T09:45:13Z</time>
      </trkpt>
      <trkpt lat="45.90688" lon="6.16717">
        <ele>739</ele>
        <time>2013-05-05T09:45:25Z</time>
      </trkpt>
      <trkpt lat="45.90683" lon="6.16717">
        <ele>741</ele>
        <time>2013-05-05T09:45:38Z</time>
      </trkpt>
      <trkpt lat="45.90672" lon="6.16721">
        <ele>744</ele>
        <time>2013-05-05T09:45:51Z</time>
      </trkpt>
      <trkpt lat="45.9066" lon="6.16735">
        <ele>745</ele>
        <time>2013-05-05T09:46:09Z</time>
      </trkpt>
      <trkpt lat="45.90652" lon="6.16747">
        <ele>747</ele>
        <time>2013-05-05T09:46:25Z</time>
      </trkpt>
      <trkpt lat="45.90646" lon="6.16757">
        <ele>749</ele>
        <time>2013-05-05T09:46:37Z</time>
      </trkpt>
      <trkpt lat="45.90638" lon="6.16765">
        <ele>750</ele>
        <time>2013-05-05T09:46:50Z</time>
      </trkpt>
      <trkpt lat="45.90632" lon="6.1678">
        <ele>751</ele>
        <time>2013-05-05T09:47:03Z</time>
      </trkpt>
      <trkpt lat="45.90639" lon="6.16785">
        <ele>755</ele>
        <time>2013-05-05T09:47:14Z</time>
      </trkpt>
      <trkpt lat="45.90647" lon="6.16784">
        <ele>757</ele>
        <time>2013-05-05T09:47:26Z</time>
      </trkpt>
      <trkpt lat="45.90655" lon="6.16781">
        <ele>757</ele>
        <time>2013-05-05T09:47:38Z</time>
      </trkpt>
      <trkpt lat="45.90666" lon="6.1678">
        <ele>757</ele>
        <time>2013-05-05T09:47:51Z</time>
      </trkpt>
      <trkpt lat="45.90673" lon="6.1678">
        <ele>760</ele>
        <time>2013-05-05T09:48:03Z</time>
      </trkpt>
      <trkpt lat="45.90674" lon="6.16781">
        <ele>761</ele>
        <time>2013-05-05T09:48:04Z</time>
      </trkpt>
      <trkpt lat="45.90669" lon="6.1678">
        <ele>761</ele>
        <time>2013-05-05T09:48:18Z</time>
      </trkpt>
      <trkpt lat="45.90664" lon="6.16785">
        <ele>763</ele>
        <time>2013-05-05T09:48:27Z</time>
      </trkpt>
      <trkpt lat="45.90656" lon="6.16794">
        <ele>764</ele>
        <time>2013-05-05T09:48:42Z</time>
      </trkpt>
      <trkpt lat="45.90648" lon="6.16805">
        <ele>765</ele>
        <time>2013-05-05T09:48:57Z</time>
      </trkpt>
      <trkpt lat="45.90644" lon="6.16813">
        <ele>766</ele>
        <time>2013-05-05T09:49:13Z</time>
      </trkpt>
      <trkpt lat="45.90639" lon="6.16815">
        <ele>764</ele>
        <time>2013-05-05T09:49:31Z</time>
      </trkpt>
      <trkpt lat="45.90641" lon="6.16815">
        <ele>764</ele>
        <time>2013-05-05T09:49:51Z</time>
      </trkpt>
      <trkpt lat="45.90642" lon="6.16817">
        <ele>766</ele>
        <time>2013-05-05T09:49:56Z</time>
      </trkpt>
      <trkpt lat="45.90642" lon="6.16818">
        <ele>764</ele>
        <time>2013-05-05T09:49:58Z</time>
      </trkpt>
      <trkpt lat="45.90641" lon="6.16817">
        <ele>765</ele>
        <time>2013-05-05T09:50:18Z</time>
      </trkpt>
      <trkpt lat="45.90648" lon="6.16826">
        <ele>766</ele>
        <time>2013-05-05T09:50:41Z</time>
      </trkpt>
      <trkpt lat="45.90644" lon="6.16817">
        <ele>767</ele>
        <time>2013-05-05T09:51:13Z</time>
      </trkpt>
      <trkpt lat="45.90645" lon="6.16809">
        <ele>767</ele>
        <time>2013-05-05T09:51:34Z</time>
      </trkpt>
      <trkpt lat="45.9064" lon="6.16811">
        <ele>766</ele>
        <time>2013-05-05T09:51:54Z</time>
      </trkpt>
      <trkpt lat="45.90641" lon="6.16816">
        <ele>766</ele>
        <time>2013-05-05T09:52:17Z</time>
      </trkpt>
      <trkpt lat="45.90645" lon="6.1681">
        <ele>766</ele>
        <time>2013-05-05T09:52:52Z</time>
      </trkpt>
      <trkpt lat="45.90636" lon="6.16821">
        <ele>765</ele>
        <time>2013-05-05T09:53:16Z</time>
      </trkpt>
      <trkpt lat="45.90634" lon="6.16821">
        <ele>766</ele>
        <time>2013-05-05T09:53:17Z</time>
      </trkpt>
      <trkpt lat="45.9063" lon="6.1682">
        <ele>765</ele>
        <time>2013-05-05T09:53:32Z</time>
      </trkpt>
      <trkpt lat="45.90634" lon="6.16824">
        <ele>766</ele>
        <time>2013-05-05T09:54:05Z</time>
      </trkpt>
      <trkpt lat="45.90642" lon="6.16822">
        <ele>770</ele>
        <time>2013-05-05T09:54:14Z</time>
      </trkpt>
      <trkpt lat="45.90642" lon="6.16821">
        <ele>768</ele>
        <time>2013-05-05T09:54:15Z</time>
      </trkpt>
      <trkpt lat="45.90649" lon="6.16818">
        <ele>768</ele>
        <time>2013-05-05T09:54:28Z</time>
      </trkpt>
      <trkpt lat="45.90647" lon="6.1681">
        <ele>768</ele>
        <time>2013-05-05T09:55:01Z</time>
      </trkpt>
      <trkpt lat="45.90646" lon="6.16806">
        <ele>768</ele>
        <time>2013-05-05T09:55:34Z</time>
      </trkpt>
      <trkpt lat="45.9065" lon="6.16807">
        <ele>768</ele>
        <time>2013-05-05T09:55:43Z</time>
      </trkpt>
      <trkpt lat="45.90662" lon="6.16809">
        <ele>769</ele>
        <time>2013-05-05T09:55:59Z</time>
      </trkpt>
      <trkpt lat="45.90663" lon="6.16808">
        <ele>770</ele>
        <time>2013-05-05T09:56:01Z</time>
      </trkpt>
      <trkpt lat="45.90671" lon="6.16803">
        <ele>771</ele>
        <time>2013-05-05T09:56:12Z</time>
      </trkpt>
      <trkpt lat="45.9068" lon="6.168">
        <ele>773</ele>
        <time>2013-05-05T09:56:24Z</time>
      </trkpt>
      <trkpt lat="45.90688" lon="6.16793">
        <ele>773</ele>
        <time>2013-05-05T09:56:36Z</time>
      </trkpt>
      <trkpt lat="45.9069" lon="6.16793">
        <ele>775</ele>
        <time>2013-05-05T09:56:52Z</time>
      </trkpt>
      <trkpt lat="45.90689" lon="6.16794">
        <ele>774</ele>
        <time>2013-05-05T09:56:54Z</time>
      </trkpt>
      <trkpt lat="45.90686" lon="6.16798">
        <ele>777</ele>
        <time>2013-05-05T09:57:02Z</time>
      </trkpt>
      <trkpt lat="45.90685" lon="6.16801">
        <ele>774</ele>
        <time>2013-05-05T09:57:05Z</time>
      </trkpt>
      <trkpt lat="45.90684" lon="6.16801">
        <ele>774</ele>
        <time>2013-05-05T09:57:06Z</time>
      </trkpt>
      <trkpt lat="45.90679" lon="6.16806">
        <ele>778</ele>
        <time>2013-05-05T09:57:14Z</time>
      </trkpt>
      <trkpt lat="45.9067" lon="6.16811">
        <ele>777</ele>
        <time>2013-05-05T09:57:28Z</time>
      </trkpt>
      <trkpt lat="45.90666" lon="6.1682">
        <ele>780</ele>
        <time>2013-05-05T09:57:38Z</time>
      </trkpt>
      <trkpt lat="45.90665" lon="6.16822">
        <ele>780</ele>
        <time>2013-05-05T09:57:40Z</time>
      </trkpt>
      <trkpt lat="45.90662" lon="6.16834">
        <ele>780</ele>
        <time>2013-05-05T09:57:48Z</time>
      </trkpt>
      <trkpt lat="45.90658" lon="6.1684">
        <ele>782</ele>
        <time>2013-05-05T09:57:57Z</time>
      </trkpt>
      <trkpt lat="45.90657" lon="6.16841">
        <ele>781</ele>
        <time>2013-05-05T09:57:59Z</time>
      </trkpt>
      <trkpt lat="45.90658" lon="6.16851">
        <ele>784</ele>
        <time>2013-05-05T09:58:15Z</time>
      </trkpt>
      <trkpt lat="45.90664" lon="6.16848">
        <ele>785</ele>
        <time>2013-05-05T09:58:24Z</time>
      </trkpt>
      <trkpt lat="45.90665" lon="6.16847">
        <ele>786</ele>
        <time>2013-05-05T09:58:26Z</time>
      </trkpt>
      <trkpt lat="45.90671" lon="6.1684">
        <ele>786</ele>
        <time>2013-05-05T09:58:36Z</time>
      </trkpt>
      <trkpt lat="45.90678" lon="6.16837">
        <ele>788</ele>
        <time>2013-05-05T09:58:47Z</time>
      </trkpt>
      <trkpt lat="45.90684" lon="6.16834">
        <ele>788</ele>
        <time>2013-05-05T09:58:56Z</time>
      </trkpt>
      <trkpt lat="45.90692" lon="6.16832">
        <ele>788</ele>
        <time>2013-05-05T09:59:07Z</time>
      </trkpt>
      <trkpt lat="45.90695" lon="6.1683">
        <ele>791</ele>
        <time>2013-05-05T09:59:13Z</time>
      </trkpt>
      <trkpt lat="45.90696" lon="6.1683">
        <ele>791</ele>
        <time>2013-05-05T09:59:14Z</time>
      </trkpt>
      <trkpt lat="45.90703" lon="6.16829">
        <ele>792</ele>
        <time>2013-05-05T09:59:21Z</time>
      </trkpt>
      <trkpt lat="45.90711" lon="6.16825">
        <ele>794</ele>
        <time>2013-05-05T09:59:32Z</time>
      </trkpt>
      <trkpt lat="45.90717" lon="6.16823">
        <ele>796</ele>
        <time>2013-05-05T09:59:40Z</time>
      </trkpt>
      <trkpt lat="45.90726" lon="6.1682">
        <ele>797</ele>
        <time>2013-05-05T09:59:54Z</time>
      </trkpt>
      <trkpt lat="45.90731" lon="6.16821">
        <ele>799</ele>
        <time>2013-05-05T10:00:01Z</time>
      </trkpt>
      <trkpt lat="45.90725" lon="6.16825">
        <ele>800</ele>
        <time>2013-05-05T10:00:12Z</time>
      </trkpt>
      <trkpt lat="45.90717" lon="6.16833">
        <ele>802</ele>
        <time>2013-05-05T10:00:26Z</time>
      </trkpt>
      <trkpt lat="45.9071" lon="6.16842">
        <ele>805</ele>
        <time>2013-05-05T10:00:39Z</time>
      </trkpt>
      <trkpt lat="45.90707" lon="6.16845">
        <ele>805</ele>
        <time>2013-05-05T10:00:44Z</time>
      </trkpt>
      <trkpt lat="45.90702" lon="6.16852">
        <ele>805</ele>
        <time>2013-05-05T10:00:53Z</time>
      </trkpt>
      <trkpt lat="45.90701" lon="6.16852">
        <ele>807</ele>
        <time>2013-05-05T10:00:55Z</time>
      </trkpt>
      <trkpt lat="45.90693" lon="6.16864">
        <ele>811</ele>
        <time>2013-05-05T10:01:08Z</time>
      </trkpt>
      <trkpt lat="45.90691" lon="6.16867">
        <ele>809</ele>
        <time>2013-05-05T10:01:11Z</time>
      </trkpt>
      <trkpt lat="45.90688" lon="6.16875">
        <ele>811</ele>
        <time>2013-05-05T10:01:24Z</time>
      </trkpt>
      <trkpt lat="45.9068" lon="6.16886">
        <ele>812</ele>
        <time>2013-05-05T10:01:35Z</time>
      </trkpt>
      <trkpt lat="45.90679" lon="6.1689">
        <ele>813</ele>
        <time>2013-05-05T10:01:39Z</time>
      </trkpt>
      <trkpt lat="45.90674" lon="6.169">
        <ele>814</ele>
        <time>2013-05-05T10:01:51Z</time>
      </trkpt>
      <trkpt lat="45.90672" lon="6.169">
        <ele>814</ele>
        <time>2013-05-05T10:01:55Z</time>
      </trkpt>
      <trkpt lat="45.90671" lon="6.16902">
        <ele>815</ele>
        <time>2013-05-05T10:01:57Z</time>
      </trkpt>
      <trkpt lat="45.90667" lon="6.16905">
        <ele>816</ele>
        <time>2013-05-05T10:02:03Z</time>
      </trkpt>
      <trkpt lat="45.90664" lon="6.16919">
        <ele>818</ele>
        <time>2013-05-05T10:02:17Z</time>
      </trkpt>
      <trkpt lat="45.90656" lon="6.16925">
        <ele>819</ele>
        <time>2013-05-05T10:02:30Z</time>
      </trkpt>
      <trkpt lat="45.90655" lon="6.16928">
        <ele>821</ele>
        <time>2013-05-05T10:02:32Z</time>
      </trkpt>
      <trkpt lat="45.90655" lon="6.16928">
        <ele>818</ele>
        <time>2013-05-05T10:02:33Z</time>
      </trkpt>
      <trkpt lat="45.90654" lon="6.16929">
        <ele>820</ele>
        <time>2013-05-05T10:02:34Z</time>
      </trkpt>
      <trkpt lat="45.90653" lon="6.1693">
        <ele>821</ele>
        <time>2013-05-05T10:02:36Z</time>
      </trkpt>
      <trkpt lat="45.90648" lon="6.1693">
        <ele>822</ele>
        <time>2013-05-05T10:02:41Z</time>
      </trkpt>
      <trkpt lat="45.90642" lon="6.16932">
        <ele>822</ele>
        <time>2013-05-05T10:02:54Z</time>
      </trkpt>
      <trkpt lat="45.90642" lon="6.16932">
        <ele>822</ele>
        <time>2013-05-05T10:02:56Z</time>
      </trkpt>
      <trkpt lat="45.90631" lon="6.16941">
        <ele>823</ele>
        <time>2013-05-05T10:03:09Z</time>
      </trkpt>
      <trkpt lat="45.90626" lon="6.16941">
        <ele>824</ele>
        <time>2013-05-05T10:03:18Z</time>
      </trkpt>
      <trkpt lat="45.90616" lon="6.16942">
        <ele>828</ele>
        <time>2013-05-05T10:03:37Z</time>
      </trkpt>
      <trkpt lat="45.90616" lon="6.16942">
        <ele>828</ele>
        <time>2013-05-05T10:03:38Z</time>
      </trkpt>
      <trkpt lat="45.90615" lon="6.16943">
        <ele>825</ele>
        <time>2013-05-05T10:03:40Z</time>
      </trkpt>
      <trkpt lat="45.90615" lon="6.16944">
        <ele>829</ele>
        <time>2013-05-05T10:03:43Z</time>
      </trkpt>
      <trkpt lat="45.9062" lon="6.16958">
        <ele>832</ele>
        <time>2013-05-05T10:04:00Z</time>
      </trkpt>
      <trkpt lat="45.9062" lon="6.16959">
        <ele>831</ele>
        <time>2013-05-05T10:04:01Z</time>
      </trkpt>
      <trkpt lat="45.90626" lon="6.16967">
        <ele>834</ele>
        <time>2013-05-05T10:04:12Z</time>
      </trkpt>
      <trkpt lat="45.90628" lon="6.16969">
        <ele>833</ele>
        <time>2013-05-05T10:04:16Z</time>
      </trkpt>
      <trkpt lat="45.90632" lon="6.16973">
        <ele>834</ele>
        <time>2013-05-05T10:04:28Z</time>
      </trkpt>
      <trkpt lat="45.9064" lon="6.16982">
        <ele>836</ele>
        <time>2013-05-05T10:04:41Z</time>
      </trkpt>
      <trkpt lat="45.90652" lon="6.16985">
        <ele>838</ele>
        <time>2013-05-05T10:05:01Z</time>
      </trkpt>
      <trkpt lat="45.90659" lon="6.16989">
        <ele>839</ele>
        <time>2013-05-05T10:05:11Z</time>
      </trkpt>
      <trkpt lat="45.90669" lon="6.16988">
        <ele>843</ele>
        <time>2013-05-05T10:05:36Z</time>
      </trkpt>
      <trkpt lat="45.90674" lon="6.16985">
        <ele>844</ele>
        <time>2013-05-05T10:05:41Z</time>
      </trkpt>
      <trkpt lat="45.90678" lon="6.16985">
        <ele>844</ele>
        <time>2013-05-05T10:05:45Z</time>
      </trkpt>
      <trkpt lat="45.90679" lon="6.16981">
        <ele>845</ele>
        <time>2013-05-05T10:05:51Z</time>
      </trkpt>
      <trkpt lat="45.90682" lon="6.16979">
        <ele>849</ele>
        <time>2013-05-05T10:06:09Z</time>
      </trkpt>
      <trkpt lat="45.90678" lon="6.1698">
        <ele>848</ele>
        <time>2013-05-05T10:06:18Z</time>
      </trkpt>
      <trkpt lat="45.90677" lon="6.1698">
        <ele>851</ele>
        <time>2013-05-05T10:06:22Z</time>
      </trkpt>
      <trkpt lat="45.90675" lon="6.1699">
        <ele>852</ele>
        <time>2013-05-05T10:06:33Z</time>
      </trkpt>
      <trkpt lat="45.90675" lon="6.16992">
        <ele>855</ele>
        <time>2013-05-05T10:06:41Z</time>
      </trkpt>
      <trkpt lat="45.90675" lon="6.16994">
        <ele>852</ele>
        <time>2013-05-05T10:06:42Z</time>
      </trkpt>
      <trkpt lat="45.90679" lon="6.17">
        <ele>856</ele>
        <time>2013-05-05T10:06:48Z</time>
      </trkpt>
      <trkpt lat="45.90686" lon="6.17002">
        <ele>856</ele>
        <time>2013-05-05T10:06:55Z</time>
      </trkpt>
      <trkpt lat="45.90688" lon="6.17">
        <ele>859</ele>
        <time>2013-05-05T10:07:08Z</time>
      </trkpt>
      <trkpt lat="45.90684" lon="6.17009">
        <ele>859</ele>
        <time>2013-05-05T10:07:22Z</time>
      </trkpt>
      <trkpt lat="45.90676" lon="6.17008">
        <ele>858</ele>
        <time>2013-05-05T10:07:28Z</time>
      </trkpt>
      <trkpt lat="45.90673" lon="6.17009">
        <ele>862</ele>
        <time>2013-05-05T10:07:33Z</time>
      </trkpt>
      <trkpt lat="45.90672" lon="6.17009">
        <ele>861</ele>
        <time>2013-05-05T10:07:37Z</time>
      </trkpt>
      <trkpt lat="45.90674" lon="6.17023">
        <ele>861</ele>
        <time>2013-05-05T10:07:48Z</time>
      </trkpt>
      <trkpt lat="45.90675" lon="6.17024">
        <ele>862</ele>
        <time>2013-05-05T10:07:50Z</time>
      </trkpt>
      <trkpt lat="45.90683" lon="6.17024">
        <ele>866</ele>
        <time>2013-05-05T10:08:04Z</time>
      </trkpt>
      <trkpt lat="45.90691" lon="6.17028">
        <ele>867</ele>
        <time>2013-05-05T10:08:19Z</time>
      </trkpt>
      <trkpt lat="45.90693" lon="6.17031">
        <ele>868</ele>
        <time>2013-05-05T10:08:26Z</time>
      </trkpt>
      <trkpt lat="45.90699" lon="6.17035">
        <ele>871</ele>
        <time>2013-05-05T10:08:38Z</time>
      </trkpt>
      <trkpt lat="45.90708" lon="6.17041">
        <ele>873</ele>
        <time>2013-05-05T10:08:54Z</time>
      </trkpt>
      <trkpt lat="45.90704" lon="6.17037">
        <ele>873</ele>
        <time>2013-05-05T10:09:06Z</time>
      </trkpt>
      <trkpt lat="45.907" lon="6.17034">
        <ele>874</ele>
        <time>2013-05-05T10:09:19Z</time>
      </trkpt>
      <trkpt lat="45.9069" lon="6.17042">
        <ele>875</ele>
        <time>2013-05-05T10:09:31Z</time>
      </trkpt>
      <trkpt lat="45.90686" lon="6.17045">
        <ele>877</ele>
        <time>2013-05-05T10:09:36Z</time>
      </trkpt>
      <trkpt lat="45.90689" lon="6.17052">
        <ele>878</ele>
        <time>2013-05-05T10:09:50Z</time>
      </trkpt>
      <trkpt lat="45.9069" lon="6.17052">
        <ele>879</ele>
        <time>2013-05-05T10:09:52Z</time>
      </trkpt>
      <trkpt lat="45.90695" lon="6.17052">
        <ele>881</ele>
        <time>2013-05-05T10:10:03Z</time>
      </trkpt>
      <trkpt lat="45.90697" lon="6.17054">
        <ele>880</ele>
        <time>2013-05-05T10:10:05Z</time>
      </trkpt>
      <trkpt lat="45.90703" lon="6.17063">
        <ele>883</ele>
        <time>2013-05-05T10:10:17Z</time>
      </trkpt>
      <trkpt lat="45.90706" lon="6.17067">
        <ele>883</ele>
        <time>2013-05-05T10:10:22Z</time>
      </trkpt>
      <trkpt lat="45.90709" lon="6.17071">
        <ele>884</ele>
        <time>2013-05-05T10:10:27Z</time>
      </trkpt>
      <trkpt lat="45.90713" lon="6.17066">
        <ele>886</ele>
        <time>2013-05-05T10:10:37Z</time>
      </trkpt>
      <trkpt lat="45.90703" lon="6.17057">
        <ele>887</ele>
        <time>2013-05-05T10:10:49Z</time>
      </trkpt>
      <trkpt lat="45.90695" lon="6.17063">
        <ele>887</ele>
        <time>2013-05-05T10:11:01Z</time>
      </trkpt>
      <trkpt lat="45.90689" lon="6.17074">
        <ele>891</ele>
        <time>2013-05-05T10:11:13Z</time>
      </trkpt>
      <trkpt lat="45.9069" lon="6.17074">
        <ele>887</ele>
        <time>2013-05-05T10:11:15Z</time>
      </trkpt>
      <trkpt lat="45.9069" lon="6.17076">
        <ele>891</ele>
        <time>2013-05-05T10:11:16Z</time>
      </trkpt>
      <trkpt lat="45.90691" lon="6.17076">
        <ele>891</ele>
        <time>2013-05-05T10:11:17Z</time>
      </trkpt>
      <trkpt lat="45.907" lon="6.17076">
        <ele>891</ele>
        <time>2013-05-05T10:11:30Z</time>
      </trkpt>
      <trkpt lat="45.90706" lon="6.17083">
        <ele>892</ele>
        <time>2013-05-05T10:11:41Z</time>
      </trkpt>
      <trkpt lat="45.90712" lon="6.17089">
        <ele>895</ele>
        <time>2013-05-05T10:11:56Z</time>
      </trkpt>
      <trkpt lat="45.9072" lon="6.17095">
        <ele>896</ele>
        <time>2013-05-05T10:12:09Z</time>
      </trkpt>
      <trkpt lat="45.90723" lon="6.17099">
        <ele>896</ele>
        <time>2013-05-05T10:12:21Z</time>
      </trkpt>
      <trkpt lat="45.90726" lon="6.17113">
        <ele>897</ele>
        <time>2013-05-05T10:12:33Z</time>
      </trkpt>
      <trkpt lat="45.90721" lon="6.17108">
        <ele>900</ele>
        <time>2013-05-05T10:12:42Z</time>
      </trkpt>
      <trkpt lat="45.90721" lon="6.17111">
        <ele>899</ele>
        <time>2013-05-05T10:12:47Z</time>
      </trkpt>
      <trkpt lat="45.90724" lon="6.17113">
        <ele>901</ele>
        <time>2013-05-05T10:12:50Z</time>
      </trkpt>
      <trkpt lat="45.90732" lon="6.17117">
        <ele>901</ele>
        <time>2013-05-05T10:13:03Z</time>
      </trkpt>
      <trkpt lat="45.9074" lon="6.17124">
        <ele>904</ele>
        <time>2013-05-05T10:13:14Z</time>
      </trkpt>
      <trkpt lat="45.90742" lon="6.17128">
        <ele>902</ele>
        <time>2013-05-05T10:13:18Z</time>
      </trkpt>
      <trkpt lat="45.90743" lon="6.17129">
        <ele>905</ele>
        <time>2013-05-05T10:13:19Z</time>
      </trkpt>
      <trkpt lat="45.90744" lon="6.17131">
        <ele>904</ele>
        <time>2013-05-05T10:13:22Z</time>
      </trkpt>
      <trkpt lat="45.90745" lon="6.17133">
        <ele>908</ele>
        <time>2013-05-05T10:13:24Z</time>
      </trkpt>
      <trkpt lat="45.90746" lon="6.17135">
        <ele>905</ele>
        <time>2013-05-05T10:13:26Z</time>
      </trkpt>
      <trkpt lat="45.9075" lon="6.17135">
        <ele>909</ele>
        <time>2013-05-05T10:13:29Z</time>
      </trkpt>
      <trkpt lat="45.90751" lon="6.17138">
        <ele>906</ele>
        <time>2013-05-05T10:13:32Z</time>
      </trkpt>
      <trkpt lat="45.90752" lon="6.17144">
        <ele>908</ele>
        <time>2013-05-05T10:13:39Z</time>
      </trkpt>
      <trkpt lat="45.90754" lon="6.1715">
        <ele>909</ele>
        <time>2013-05-05T10:13:46Z</time>
      </trkpt>
      <trkpt lat="45.90757" lon="6.17155">
        <ele>910</ele>
        <time>2013-05-05T10:13:53Z</time>
      </trkpt>
      <trkpt lat="45.90757" lon="6.17157">
        <ele>909</ele>
        <time>2013-05-05T10:13:55Z</time>
      </trkpt>
      <trkpt lat="45.9076" lon="6.17164">
        <ele>911</ele>
        <time>2013-05-05T10:14:01Z</time>
      </trkpt>
      <trkpt lat="45.90767" lon="6.17168">
        <ele>911</ele>
        <time>2013-05-05T10:14:09Z</time>
      </trkpt>
      <trkpt lat="45.90773" lon="6.17174">
        <ele>912</ele>
        <time>2013-05-05T10:14:20Z</time>
      </trkpt>
      <trkpt lat="45.9078" lon="6.17183">
        <ele>913</ele>
        <time>2013-05-05T10:14:32Z</time>
      </trkpt>
      <trkpt lat="45.90784" lon="6.17183">
        <ele>915</ele>
        <time>2013-05-05T10:14:35Z</time>
      </trkpt>
      <trkpt lat="45.90788" lon="6.17191">
        <ele>916</ele>
        <time>2013-05-05T10:14:47Z</time>
      </trkpt>
      <trkpt lat="45.90789" lon="6.17193">
        <ele>915</ele>
        <time>2013-05-05T10:14:49Z</time>
      </trkpt>
      <trkpt lat="45.9079" lon="6.17194">
        <ele>917</ele>
        <time>2013-05-05T10:14:51Z</time>
      </trkpt>
      <trkpt lat="45.90795" lon="6.17199">
        <ele>917</ele>
        <time>2013-05-05T10:14:58Z</time>
      </trkpt>
      <trkpt lat="45.90801" lon="6.17207">
        <ele>917</ele>
        <time>2013-05-05T10:15:11Z</time>
      </trkpt>
      <trkpt lat="45.90802" lon="6.17212">
        <ele>918</ele>
        <time>2013-05-05T10:15:14Z</time>
      </trkpt>
      <trkpt lat="45.90811" lon="6.17223">
        <ele>921</ele>
        <time>2013-05-05T10:15:27Z</time>
      </trkpt>
      <trkpt lat="45.90811" lon="6.17224">
        <ele>917</ele>
        <time>2013-05-05T10:15:28Z</time>
      </trkpt>
      <trkpt lat="45.90812" lon="6.17224">
        <ele>919</ele>
        <time>2013-05-05T10:15:29Z</time>
      </trkpt>
      <trkpt lat="45.90816" lon="6.17227">
        <ele>921</ele>
        <time>2013-05-05T10:15:35Z</time>
      </trkpt>
      <trkpt lat="45.90826" lon="6.17234">
        <ele>921</ele>
        <time>2013-05-05T10:15:50Z</time>
      </trkpt>
      <trkpt lat="45.90825" lon="6.17247">
        <ele>921</ele>
        <time>2013-05-05T10:16:11Z</time>
      </trkpt>
      <trkpt lat="45.90826" lon="6.17252">
        <ele>923</ele>
        <time>2013-05-05T10:16:34Z</time>
      </trkpt>
      <trkpt lat="45.90829" lon="6.17246">
        <ele>923</ele>
        <time>2013-05-05T10:17:01Z</time>
      </trkpt>
      <trkpt lat="45.9083" lon="6.17245">
        <ele>922</ele>
        <time>2013-05-05T10:17:32Z</time>
      </trkpt>
      <trkpt lat="45.9083" lon="6.17242">
        <ele>922</ele>
        <time>2013-05-05T10:17:55Z</time>
      </trkpt>
      <trkpt lat="45.90827" lon="6.17249">
        <ele>923</ele>
        <time>2013-05-05T10:18:11Z</time>
      </trkpt>
      <trkpt lat="45.90834" lon="6.17247">
        <ele>923</ele>
        <time>2013-05-05T10:18:51Z</time>
      </trkpt>
      <trkpt lat="45.9083" lon="6.17245">
        <ele>921</ele>
        <time>2013-05-05T10:19:11Z</time>
      </trkpt>
      <trkpt lat="45.90829" lon="6.17245">
        <ele>921</ele>
        <time>2013-05-05T10:19:16Z</time>
      </trkpt>
      <trkpt lat="45.90829" lon="6.17245">
        <ele>924</ele>
        <time>2013-05-05T10:19:22Z</time>
      </trkpt>
      <trkpt lat="45.90826" lon="6.17244">
        <ele>921</ele>
        <time>2013-05-05T10:19:24Z</time>
      </trkpt>
      <trkpt lat="45.90825" lon="6.17244">
        <ele>924</ele>
        <time>2013-05-05T10:19:25Z</time>
      </trkpt>
      <trkpt lat="45.90824" lon="6.17243">
        <ele>923</ele>
        <time>2013-05-05T10:19:26Z</time>
      </trkpt>
      <trkpt lat="45.90821" lon="6.17242">
        <ele>923</ele>
        <time>2013-05-05T10:19:28Z</time>
      </trkpt>
      <trkpt lat="45.90819" lon="6.17242">
        <ele>924</ele>
        <time>2013-05-05T10:19:30Z</time>
      </trkpt>
      <trkpt lat="45.90819" lon="6.17241">
        <ele>923</ele>
        <time>2013-05-05T10:19:32Z</time>
      </trkpt>
      <trkpt lat="45.90815" lon="6.17241">
        <ele>924</ele>
        <time>2013-05-05T10:19:34Z</time>
      </trkpt>
      <trkpt lat="45.90813" lon="6.17239">
        <ele>924</ele>
        <time>2013-05-05T10:19:39Z</time>
      </trkpt>
      <trkpt lat="45.90804" lon="6.17238">
        <ele>927</ele>
        <time>2013-05-05T10:19:52Z</time>
      </trkpt>
      <trkpt lat="45.90797" lon="6.17239">
        <ele>927</ele>
        <time>2013-05-05T10:20:07Z</time>
      </trkpt>
      <trkpt lat="45.90796" lon="6.17236">
        <ele>927</ele>
        <time>2013-05-05T10:20:14Z</time>
      </trkpt>
      <trkpt lat="45.90789" lon="6.17231">
        <ele>928</ele>
        <time>2013-05-05T10:20:20Z</time>
      </trkpt>
      <trkpt lat="45.90781" lon="6.17221">
        <ele>932</ele>
        <time>2013-05-05T10:20:36Z</time>
      </trkpt>
      <trkpt lat="45.90771" lon="6.17216">
        <ele>932</ele>
        <time>2013-05-05T10:20:49Z</time>
      </trkpt>
      <trkpt lat="45.90764" lon="6.17216">
        <ele>932</ele>
        <time>2013-05-05T10:21:02Z</time>
      </trkpt>
      <trkpt lat="45.90762" lon="6.17217">
        <ele>935</ele>
        <time>2013-05-05T10:21:05Z</time>
      </trkpt>
      <trkpt lat="45.90747" lon="6.17207">
        <ele>935</ele>
        <time>2013-05-05T10:21:19Z</time>
      </trkpt>
      <trkpt lat="45.90746" lon="6.17205">
        <ele>938</ele>
        <time>2013-05-05T10:21:26Z</time>
      </trkpt>
      <trkpt lat="45.90746" lon="6.17209">
        <ele>937</ele>
        <time>2013-05-05T10:21:31Z</time>
      </trkpt>
      <trkpt lat="45.90747" lon="6.1721">
        <ele>936</ele>
        <time>2013-05-05T10:21:33Z</time>
      </trkpt>
      <trkpt lat="45.90752" lon="6.17225">
        <ele>936</ele>
        <time>2013-05-05T10:21:44Z</time>
      </trkpt>
      <trkpt lat="45.90756" lon="6.1723">
        <ele>940</ele>
        <time>2013-05-05T10:21:51Z</time>
      </trkpt>
      <trkpt lat="45.90757" lon="6.17233">
        <ele>941</ele>
        <time>2013-05-05T10:21:55Z</time>
      </trkpt>
      <trkpt lat="45.90759" lon="6.17245">
        <ele>942</ele>
        <time>2013-05-05T10:22:05Z</time>
      </trkpt>
      <trkpt lat="45.90762" lon="6.17255">
        <ele>943</ele>
        <time>2013-05-05T10:22:17Z</time>
      </trkpt>
      <trkpt lat="45.90763" lon="6.17257">
        <ele>941</ele>
        <time>2013-05-05T10:22:19Z</time>
      </trkpt>
      <trkpt lat="45.90765" lon="6.17263">
        <ele>943</ele>
        <time>2013-05-05T10:22:23Z</time>
      </trkpt>
      <trkpt lat="45.90771" lon="6.17275">
        <ele>943</ele>
        <time>2013-05-05T10:22:35Z</time>
      </trkpt>
      <trkpt lat="45.90772" lon="6.1728">
        <ele>945</ele>
        <time>2013-05-05T10:22:38Z</time>
      </trkpt>
      <trkpt lat="45.90775" lon="6.17288">
        <ele>945</ele>
        <time>2013-05-05T10:22:44Z</time>
      </trkpt>
      <trkpt lat="45.90776" lon="6.1729">
        <ele>944</ele>
        <time>2013-05-05T10:22:46Z</time>
      </trkpt>
      <trkpt lat="45.90776" lon="6.17292">
        <ele>946</ele>
        <time>2013-05-05T10:22:48Z</time>
      </trkpt>
      <trkpt lat="45.9078" lon="6.17302">
        <ele>947</ele>
        <time>2013-05-05T10:22:59Z</time>
      </trkpt>
      <trkpt lat="45.90781" lon="6.17311">
        <ele>949</ele>
        <time>2013-05-05T10:23:09Z</time>
      </trkpt>
      <trkpt lat="45.90782" lon="6.17317">
        <ele>950</ele>
        <time>2013-05-05T10:23:16Z</time>
      </trkpt>
      <trkpt lat="45.90785" lon="6.17334">
        <ele>950</ele>
        <time>2013-05-05T10:23:29Z</time>
      </trkpt>
      <trkpt lat="45.90783" lon="6.17338">
        <ele>950</ele>
        <time>2013-05-05T10:23:36Z</time>
      </trkpt>
      <trkpt lat="45.90782" lon="6.17331">
        <ele>951</ele>
        <time>2013-05-05T10:23:45Z</time>
      </trkpt>
      <trkpt lat="45.90776" lon="6.17324">
        <ele>952</ele>
        <time>2013-05-05T10:23:55Z</time>
      </trkpt>
      <trkpt lat="45.90771" lon="6.17322">
        <ele>953</ele>
        <time>2013-05-05T10:24:10Z</time>
      </trkpt>
      <trkpt lat="45.9077" lon="6.17335">
        <ele>953</ele>
        <time>2013-05-05T10:24:20Z</time>
      </trkpt>
      <trkpt lat="45.90774" lon="6.17356">
        <ele>954</ele>
        <time>2013-05-05T10:24:34Z</time>
      </trkpt>
      <trkpt lat="45.90774" lon="6.17373">
        <ele>958</ele>
        <time>2013-05-05T10:24:49Z</time>
      </trkpt>
      <trkpt lat="45.90775" lon="6.17373">
        <ele>954</ele>
        <time>2013-05-05T10:24:51Z</time>
      </trkpt>
      <trkpt lat="45.90775" lon="6.17375">
        <ele>958</ele>
        <time>2013-05-05T10:24:56Z</time>
      </trkpt>
      <trkpt lat="45.90776" lon="6.1737">
        <ele>961</ele>
        <time>2013-05-05T10:25:03Z</time>
      </trkpt>
      <trkpt lat="45.90776" lon="6.17369">
        <ele>957</ele>
        <time>2013-05-05T10:25:05Z</time>
      </trkpt>
      <trkpt lat="45.90776" lon="6.17369">
        <ele>960</ele>
        <time>2013-05-05T10:25:06Z</time>
      </trkpt>
      <trkpt lat="45.90776" lon="6.17369">
        <ele>960</ele>
        <time>2013-05-05T10:25:07Z</time>
      </trkpt>
      <trkpt lat="45.90775" lon="6.17369">
        <ele>959</ele>
        <time>2013-05-05T10:25:09Z</time>
      </trkpt>
      <trkpt lat="45.90771" lon="6.17376">
        <ele>959</ele>
        <time>2013-05-05T10:25:23Z</time>
      </trkpt>
      <trkpt lat="45.90772" lon="6.17374">
        <ele>962</ele>
        <time>2013-05-05T10:25:24Z</time>
      </trkpt>
      <trkpt lat="45.90774" lon="6.17373">
        <ele>962</ele>
        <time>2013-05-05T10:25:28Z</time>
      </trkpt>
      <trkpt lat="45.90772" lon="6.17368">
        <ele>963</ele>
        <time>2013-05-05T10:25:36Z</time>
      </trkpt>
      <trkpt lat="45.90767" lon="6.17372">
        <ele>968</ele>
        <time>2013-05-05T10:25:46Z</time>
      </trkpt>
      <trkpt lat="45.90766" lon="6.17372">
        <ele>966</ele>
        <time>2013-05-05T10:25:47Z</time>
      </trkpt>
      <trkpt lat="45.90766" lon="6.17372">
        <ele>964</ele>
        <time>2013-05-05T10:25:49Z</time>
      </trkpt>
      <trkpt lat="45.90766" lon="6.17371">
        <ele>968</ele>
        <time>2013-05-05T10:25:51Z</time>
      </trkpt>
      <trkpt lat="45.90766" lon="6.17371">
        <ele>966</ele>
        <time>2013-05-05T10:25:52Z</time>
      </trkpt>
      <trkpt lat="45.90762" lon="6.17364">
        <ele>968</ele>
        <time>2013-05-05T10:26:00Z</time>
      </trkpt>
      <trkpt lat="45.90756" lon="6.17358">
        <ele>968</ele>
        <time>2013-05-05T10:26:09Z</time>
      </trkpt>
      <trkpt lat="45.90752" lon="6.17354">
        <ele>971</ele>
        <time>2013-05-05T10:26:16Z</time>
      </trkpt>
      <trkpt lat="45.90751" lon="6.17354">
        <ele>971</ele>
        <time>2013-05-05T10:26:17Z</time>
      </trkpt>
      <trkpt lat="45.90748" lon="6.17363">
        <ele>971</ele>
        <time>2013-05-05T10:26:24Z</time>
      </trkpt>
      <trkpt lat="45.90747" lon="6.1737">
        <ele>972</ele>
        <time>2013-05-05T10:26:30Z</time>
      </trkpt>
      <trkpt lat="45.90745" lon="6.1738">
        <ele>973</ele>
        <time>2013-05-05T10:26:42Z</time>
      </trkpt>
      <trkpt lat="45.90747" lon="6.17395">
        <ele>973</ele>
        <time>2013-05-05T10:26:53Z</time>
      </trkpt>
      <trkpt lat="45.90748" lon="6.174">
        <ele>975</ele>
        <time>2013-05-05T10:26:59Z</time>
      </trkpt>
      <trkpt lat="45.90744" lon="6.17393">
        <ele>976</ele>
        <time>2013-05-05T10:27:11Z</time>
      </trkpt>
      <trkpt lat="45.90744" lon="6.17392">
        <ele>975</ele>
        <time>2013-05-05T10:27:13Z</time>
      </trkpt>
      <trkpt lat="45.90742" lon="6.17391">
        <ele>977</ele>
        <time>2013-05-05T10:27:16Z</time>
      </trkpt>
      <trkpt lat="45.90738" lon="6.17386">
        <ele>979</ele>
        <time>2013-05-05T10:27:29Z</time>
      </trkpt>
      <trkpt lat="45.90731" lon="6.17381">
        <ele>979</ele>
        <time>2013-05-05T10:27:39Z</time>
      </trkpt>
      <trkpt lat="45.90726" lon="6.17374">
        <ele>983</ele>
        <time>2013-05-05T10:27:46Z</time>
      </trkpt>
      <trkpt lat="45.90724" lon="6.17372">
        <ele>982</ele>
        <time>2013-05-05T10:27:50Z</time>
      </trkpt>
      <trkpt lat="45.9072" lon="6.17363">
        <ele>982</ele>
        <time>2013-05-05T10:28:03Z</time>
      </trkpt>
      <trkpt lat="45.90716" lon="6.17355">
        <ele>984</ele>
        <time>2013-05-05T10:28:15Z</time>
      </trkpt>
      <trkpt lat="45.9071" lon="6.17343">
        <ele>983</ele>
        <time>2013-05-05T10:28:27Z</time>
      </trkpt>
      <trkpt lat="45.90707" lon="6.17339">
        <ele>985</ele>
        <time>2013-05-05T10:28:30Z</time>
      </trkpt>
      <trkpt lat="45.90704" lon="6.17331">
        <ele>987</ele>
        <time>2013-05-05T10:28:41Z</time>
      </trkpt>
      <trkpt lat="45.90696" lon="6.17323">
        <ele>989</ele>
        <time>2013-05-05T10:28:54Z</time>
      </trkpt>
      <trkpt lat="45.90695" lon="6.17322">
        <ele>988</ele>
        <time>2013-05-05T10:28:55Z</time>
      </trkpt>
      <trkpt lat="45.90691" lon="6.17316">
        <ele>989</ele>
        <time>2013-05-05T10:29:03Z</time>
      </trkpt>
      <trkpt lat="45.90684" lon="6.17305">
        <ele>990</ele>
        <time>2013-05-05T10:29:14Z</time>
      </trkpt>
      <trkpt lat="45.90676" lon="6.17296">
        <ele>992</ele>
        <time>2013-05-05T10:29:26Z</time>
      </trkpt>
      <trkpt lat="45.90668" lon="6.17286">
        <ele>995</ele>
        <time>2013-05-05T10:29:39Z</time>
      </trkpt>
      <trkpt lat="45.90667" lon="6.17286">
        <ele>994</ele>
        <time>2013-05-05T10:29:40Z</time>
      </trkpt>
      <trkpt lat="45.90664" lon="6.17279">
        <ele>996</ele>
        <time>2013-05-05T10:29:50Z</time>
      </trkpt>
      <trkpt lat="45.90662" lon="6.17277">
        <ele>996</ele>
        <time>2013-05-05T10:29:54Z</time>
      </trkpt>
      <trkpt lat="45.90654" lon="6.17281">
        <ele>998</ele>
        <time>2013-05-05T10:30:05Z</time>
      </trkpt>
      <trkpt lat="45.90646" lon="6.17286">
        <ele>999</ele>
        <time>2013-05-05T10:30:18Z</time>
      </trkpt>
      <trkpt lat="45.9064" lon="6.1729">
        <ele>1000</ele>
        <time>2013-05-05T10:30:26Z</time>
      </trkpt>
      <trkpt lat="45.90636" lon="6.17287">
        <ele>1002</ele>
        <time>2013-05-05T10:30:33Z</time>
      </trkpt>
      <trkpt lat="45.90631" lon="6.17283">
        <ele>1002</ele>
        <time>2013-05-05T10:30:42Z</time>
      </trkpt>
      <trkpt lat="45.90627" lon="6.17282">
        <ele>1004</ele>
        <time>2013-05-05T10:30:50Z</time>
      </trkpt>
      <trkpt lat="45.90615" lon="6.17277">
        <ele>1004</ele>
        <time>2013-05-05T10:31:05Z</time>
      </trkpt>
      <trkpt lat="45.90607" lon="6.17268">
        <ele>1005</ele>
        <time>2013-05-05T10:31:16Z</time>
      </trkpt>
      <trkpt lat="45.90605" lon="6.17265">
        <ele>1005</ele>
        <time>2013-05-05T10:31:19Z</time>
      </trkpt>
      <trkpt lat="45.90598" lon="6.17254">
        <ele>1005</ele>
        <time>2013-05-05T10:31:29Z</time>
      </trkpt>
      <trkpt lat="45.90597" lon="6.17253">
        <ele>1004</ele>
        <time>2013-05-05T10:31:31Z</time>
      </trkpt>
      <trkpt lat="45.90586" lon="6.17245">
        <ele>1005</ele>
        <time>2013-05-05T10:31:43Z</time>
      </trkpt>
      <trkpt lat="45.90582" lon="6.17235">
        <ele>1005</ele>
        <time>2013-05-05T10:31:56Z</time>
      </trkpt>
      <trkpt lat="45.90587" lon="6.17233">
        <ele>1005</ele>
        <time>2013-05-05T10:32:16Z</time>
      </trkpt>
      <trkpt lat="45.90578" lon="6.17234">
        <ele>1006</ele>
        <time>2013-05-05T10:32:41Z</time>
      </trkpt>
      <trkpt lat="45.90564" lon="6.17234">
        <ele>1008</ele>
        <time>2013-05-05T10:32:54Z</time>
      </trkpt>
      <trkpt lat="45.90555" lon="6.17232">
        <ele>1010</ele>
        <time>2013-05-05T10:33:04Z</time>
      </trkpt>
      <trkpt lat="45.90551" lon="6.17233">
        <ele>1010</ele>
        <time>2013-05-05T10:33:08Z</time>
      </trkpt>
      <trkpt lat="45.90547" lon="6.17233">
        <ele>1012</ele>
        <time>2013-05-05T10:33:13Z</time>
      </trkpt>
      <trkpt lat="45.90542" lon="6.17237">
        <ele>1012</ele>
        <time>2013-05-05T10:33:21Z</time>
      </trkpt>
      <trkpt lat="45.90545" lon="6.17242">
        <ele>1015</ele>
        <time>2013-05-05T10:33:27Z</time>
      </trkpt>
      <trkpt lat="45.90546" lon="6.17246">
        <ele>1016</ele>
        <time>2013-05-05T10:33:32Z</time>
      </trkpt>
      <trkpt lat="45.90545" lon="6.17248">
        <ele>1016</ele>
        <time>2013-05-05T10:33:35Z</time>
      </trkpt>
      <trkpt lat="45.90543" lon="6.17248">
        <ele>1018</ele>
        <time>2013-05-05T10:33:38Z</time>
      </trkpt>
      <trkpt lat="45.90544" lon="6.1725">
        <ele>1019</ele>
        <time>2013-05-05T10:33:44Z</time>
      </trkpt>
      <trkpt lat="45.9055" lon="6.17258">
        <ele>1021</ele>
        <time>2013-05-05T10:33:55Z</time>
      </trkpt>
      <trkpt lat="45.90551" lon="6.17257">
        <ele>1021</ele>
        <time>2013-05-05T10:34:05Z</time>
      </trkpt>
      <trkpt lat="45.90545" lon="6.17255">
        <ele>1025</ele>
        <time>2013-05-05T10:34:15Z</time>
      </trkpt>
      <trkpt lat="45.90542" lon="6.17255">
        <ele>1024</ele>
        <time>2013-05-05T10:34:20Z</time>
      </trkpt>
      <trkpt lat="45.90539" lon="6.17256">
        <ele>1025</ele>
        <time>2013-05-05T10:34:24Z</time>
      </trkpt>
      <trkpt lat="45.90533" lon="6.17261">
        <ele>1028</ele>
        <time>2013-05-05T10:34:38Z</time>
      </trkpt>
      <trkpt lat="45.90537" lon="6.17268">
        <ele>1029</ele>
        <time>2013-05-05T10:34:46Z</time>
      </trkpt>
      <trkpt lat="45.90541" lon="6.17271">
        <ele>1031</ele>
        <time>2013-05-05T10:34:53Z</time>
      </trkpt>
      <trkpt lat="45.90547" lon="6.17281">
        <ele>1032</ele>
        <time>2013-05-05T10:35:04Z</time>
      </trkpt>
      <trkpt lat="45.90547" lon="6.17281">
        <ele>1035</ele>
        <time>2013-05-05T10:35:06Z</time>
      </trkpt>
      <trkpt lat="45.90543" lon="6.17283">
        <ele>1036</ele>
        <time>2013-05-05T10:35:20Z</time>
      </trkpt>
      <trkpt lat="45.90536" lon="6.17283">
        <ele>1038</ele>
        <time>2013-05-05T10:35:32Z</time>
      </trkpt>
      <trkpt lat="45.90531" lon="6.17286">
        <ele>1039</ele>
        <time>2013-05-05T10:35:47Z</time>
      </trkpt>
      <trkpt lat="45.90532" lon="6.17287">
        <ele>1042</ele>
        <time>2013-05-05T10:35:48Z</time>
      </trkpt>
      <trkpt lat="45.90534" lon="6.1729">
        <ele>1042</ele>
        <time>2013-05-05T10:35:53Z</time>
      </trkpt>
      <trkpt lat="45.90539" lon="6.17295">
        <ele>1042</ele>
        <time>2013-05-05T10:36:03Z</time>
      </trkpt>
      <trkpt lat="45.90543" lon="6.17302">
        <ele>1045</ele>
        <time>2013-05-05T10:36:16Z</time>
      </trkpt>
      <trkpt lat="45.90546" lon="6.17306">
        <ele>1047</ele>
        <time>2013-05-05T10:36:24Z</time>
      </trkpt>
      <trkpt lat="45.90549" lon="6.17313">
        <ele>1050</ele>
        <time>2013-05-05T10:36:40Z</time>
      </trkpt>
      <trkpt lat="45.90547" lon="6.17316">
        <ele>1051</ele>
        <time>2013-05-05T10:36:56Z</time>
      </trkpt>
      <trkpt lat="45.90549" lon="6.17325">
        <ele>1054</ele>
        <time>2013-05-05T10:37:07Z</time>
      </trkpt>
      <trkpt lat="45.90552" lon="6.17332">
        <ele>1055</ele>
        <time>2013-05-05T10:37:20Z</time>
      </trkpt>
      <trkpt lat="45.90556" lon="6.1734">
        <ele>1055</ele>
        <time>2013-05-05T10:37:32Z</time>
      </trkpt>
      <trkpt lat="45.90557" lon="6.17345">
        <ele>1059</ele>
        <time>2013-05-05T10:37:44Z</time>
      </trkpt>
      <trkpt lat="45.9056" lon="6.17355">
        <ele>1058</ele>
        <time>2013-05-05T10:37:54Z</time>
      </trkpt>
      <trkpt lat="45.90561" lon="6.17356">
        <ele>1060</ele>
        <time>2013-05-05T10:37:56Z</time>
      </trkpt>
      <trkpt lat="45.90563" lon="6.17363">
        <ele>1063</ele>
        <time>2013-05-05T10:38:09Z</time>
      </trkpt>
      <trkpt lat="45.90565" lon="6.17377">
        <ele>1063</ele>
        <time>2013-05-05T10:38:20Z</time>
      </trkpt>
      <trkpt lat="45.90566" lon="6.17379">
        <ele>1062</ele>
        <time>2013-05-05T10:38:22Z</time>
      </trkpt>
      <trkpt lat="45.90568" lon="6.17389">
        <ele>1065</ele>
        <time>2013-05-05T10:38:31Z</time>
      </trkpt>
      <trkpt lat="45.90566" lon="6.174">
        <ele>1066</ele>
        <time>2013-05-05T10:38:43Z</time>
      </trkpt>
      <trkpt lat="45.90565" lon="6.17404">
        <ele>1067</ele>
        <time>2013-05-05T10:38:51Z</time>
      </trkpt>
      <trkpt lat="45.90561" lon="6.17398">
        <ele>1070</ele>
        <time>2013-05-05T10:39:05Z</time>
      </trkpt>
      <trkpt lat="45.9056" lon="6.17399">
        <ele>1070</ele>
        <time>2013-05-05T10:39:12Z</time>
      </trkpt>
      <trkpt lat="45.90554" lon="6.17398">
        <ele>1073</ele>
        <time>2013-05-05T10:39:32Z</time>
      </trkpt>
      <trkpt lat="45.90548" lon="6.17394">
        <ele>1076</ele>
        <time>2013-05-05T10:39:54Z</time>
      </trkpt>
      <trkpt lat="45.90542" lon="6.17389">
        <ele>1078</ele>
        <time>2013-05-05T10:40:07Z</time>
      </trkpt>
      <trkpt lat="45.90536" lon="6.1738">
        <ele>1079</ele>
        <time>2013-05-05T10:40:21Z</time>
      </trkpt>
      <trkpt lat="45.90529" lon="6.17387">
        <ele>1083</ele>
        <time>2013-05-05T10:40:35Z</time>
      </trkpt>
      <trkpt lat="45.90531" lon="6.17393">
        <ele>1083</ele>
        <time>2013-05-05T10:40:40Z</time>
      </trkpt>
      <trkpt lat="45.90532" lon="6.17398">
        <ele>1085</ele>
        <time>2013-05-05T10:40:45Z</time>
      </trkpt>
      <trkpt lat="45.90531" lon="6.174">
        <ele>1083</ele>
        <time>2013-05-05T10:40:47Z</time>
      </trkpt>
      <trkpt lat="45.90532" lon="6.17406">
        <ele>1082</ele>
        <time>2013-05-05T10:40:54Z</time>
      </trkpt>
      <trkpt lat="45.90532" lon="6.17408">
        <ele>1086</ele>
        <time>2013-05-05T10:41:05Z</time>
      </trkpt>
      <trkpt lat="45.90531" lon="6.17408">
        <ele>1083</ele>
        <time>2013-05-05T10:41:06Z</time>
      </trkpt>
      <trkpt lat="45.90531" lon="6.17409">
        <ele>1086</ele>
        <time>2013-05-05T10:41:07Z</time>
      </trkpt>
      <trkpt lat="45.90533" lon="6.17409">
        <ele>1084</ele>
        <time>2013-05-05T10:41:10Z</time>
      </trkpt>
      <trkpt lat="45.90533" lon="6.17411">
        <ele>1087</ele>
        <time>2013-05-05T10:41:15Z</time>
      </trkpt>
      <trkpt lat="45.90532" lon="6.17423">
        <ele>1089</ele>
        <time>2013-05-05T10:41:31Z</time>
      </trkpt>
      <trkpt lat="45.90532" lon="6.17428">
        <ele>1090</ele>
        <time>2013-05-05T10:41:45Z</time>
      </trkpt>
      <trkpt lat="45.90532" lon="6.17434">
        <ele>1091</ele>
        <time>2013-05-05T10:41:54Z</time>
      </trkpt>
      <trkpt lat="45.90532" lon="6.17435">
        <ele>1095</ele>
        <time>2013-05-05T10:41:55Z</time>
      </trkpt>
      <trkpt lat="45.9053" lon="6.17442">
        <ele>1095</ele>
        <time>2013-05-05T10:42:08Z</time>
      </trkpt>
      <trkpt lat="45.9053" lon="6.17449">
        <ele>1098</ele>
        <time>2013-05-05T10:42:17Z</time>
      </trkpt>
      <trkpt lat="45.90534" lon="6.17459">
        <ele>1100</ele>
        <time>2013-05-05T10:42:29Z</time>
      </trkpt>
      <trkpt lat="45.90532" lon="6.17458">
        <ele>1100</ele>
        <time>2013-05-05T10:42:33Z</time>
      </trkpt>
      <trkpt lat="45.90531" lon="6.17464">
        <ele>1101</ele>
        <time>2013-05-05T10:42:40Z</time>
      </trkpt>
      <trkpt lat="45.90532" lon="6.17474">
        <ele>1101</ele>
        <time>2013-05-05T10:42:55Z</time>
      </trkpt>
      <trkpt lat="45.90533" lon="6.17474">
        <ele>1106</ele>
        <time>2013-05-05T10:42:59Z</time>
      </trkpt>
      <trkpt lat="45.90533" lon="6.17475">
        <ele>1102</ele>
        <time>2013-05-05T10:43:01Z</time>
      </trkpt>
      <trkpt lat="45.90533" lon="6.17475">
        <ele>1102</ele>
        <time>2013-05-05T10:43:02Z</time>
      </trkpt>
      <trkpt lat="45.90533" lon="6.17474">
        <ele>1105</ele>
        <time>2013-05-05T10:43:03Z</time>
      </trkpt>
      <trkpt lat="45.90533" lon="6.17474">
        <ele>1104</ele>
        <time>2013-05-05T10:43:04Z</time>
      </trkpt>
      <trkpt lat="45.9053" lon="6.17475">
        <ele>1109</ele>
        <time>2013-05-05T10:43:16Z</time>
      </trkpt>
      <trkpt lat="45.90529" lon="6.17475">
        <ele>1105</ele>
        <time>2013-05-05T10:43:17Z</time>
      </trkpt>
      <trkpt lat="45.90529" lon="6.17477">
        <ele>1109</ele>
        <time>2013-05-05T10:43:19Z</time>
      </trkpt>
      <trkpt lat="45.90527" lon="6.17483">
        <ele>1108</ele>
        <time>2013-05-05T10:43:28Z</time>
      </trkpt>
      <trkpt lat="45.90525" lon="6.17482">
        <ele>1111</ele>
        <time>2013-05-05T10:43:37Z</time>
      </trkpt>
      <trkpt lat="45.90524" lon="6.17479">
        <ele>1111</ele>
        <time>2013-05-05T10:43:43Z</time>
      </trkpt>
      <trkpt lat="45.90524" lon="6.17475">
        <ele>1112</ele>
        <time>2013-05-05T10:43:57Z</time>
      </trkpt>
      <trkpt lat="45.9052" lon="6.17482">
        <ele>1114</ele>
        <time>2013-05-05T10:44:10Z</time>
      </trkpt>
      <trkpt lat="45.90519" lon="6.17485">
        <ele>1114</ele>
        <time>2013-05-05T10:44:17Z</time>
      </trkpt>
      <trkpt lat="45.90514" lon="6.1748">
        <ele>1115</ele>
        <time>2013-05-05T10:44:27Z</time>
      </trkpt>
      <trkpt lat="45.90513" lon="6.17481">
        <ele>1118</ele>
        <time>2013-05-05T10:44:30Z</time>
      </trkpt>
      <trkpt lat="45.90513" lon="6.17482">
        <ele>1118</ele>
        <time>2013-05-05T10:44:31Z</time>
      </trkpt>
      <trkpt lat="45.9051" lon="6.17479">
        <ele>1118</ele>
        <time>2013-05-05T10:44:48Z</time>
      </trkpt>
      <trkpt lat="45.90507" lon="6.17473">
        <ele>1122</ele>
        <time>2013-05-05T10:44:58Z</time>
      </trkpt>
      <trkpt lat="45.90503" lon="6.17472">
        <ele>1122</ele>
        <time>2013-05-05T10:45:13Z</time>
      </trkpt>
      <trkpt lat="45.90501" lon="6.17467">
        <ele>1124</ele>
        <time>2013-05-05T10:45:22Z</time>
      </trkpt>
      <trkpt lat="45.90501" lon="6.17466">
        <ele>1123</ele>
        <time>2013-05-05T10:45:24Z</time>
      </trkpt>
      <trkpt lat="45.90496" lon="6.17458">
        <ele>1126</ele>
        <time>2013-05-05T10:45:35Z</time>
      </trkpt>
      <trkpt lat="45.90495" lon="6.17457">
        <ele>1126</ele>
        <time>2013-05-05T10:45:36Z</time>
      </trkpt>
      <trkpt lat="45.9049" lon="6.17451">
        <ele>1124</ele>
        <time>2013-05-05T10:45:48Z</time>
      </trkpt>
      <trkpt lat="45.9049" lon="6.1745">
        <ele>1128</ele>
        <time>2013-05-05T10:45:49Z</time>
      </trkpt>
      <trkpt lat="45.9049" lon="6.1745">
        <ele>1125</ele>
        <time>2013-05-05T10:45:50Z</time>
      </trkpt>
      <trkpt lat="45.90489" lon="6.1745">
        <ele>1129</ele>
        <time>2013-05-05T10:45:51Z</time>
      </trkpt>
      <trkpt lat="45.90489" lon="6.17449">
        <ele>1125</ele>
        <time>2013-05-05T10:45:53Z</time>
      </trkpt>
      <trkpt lat="45.90489" lon="6.17449">
        <ele>1130</ele>
        <time>2013-05-05T10:45:54Z</time>
      </trkpt>
      <trkpt lat="45.90489" lon="6.17449">
        <ele>1127</ele>
        <time>2013-05-05T10:45:55Z</time>
      </trkpt>
      <trkpt lat="45.90485" lon="6.17446">
        <ele>1126</ele>
        <time>2013-05-05T10:46:02Z</time>
      </trkpt>
      <trkpt lat="45.90484" lon="6.17446">
        <ele>1130</ele>
        <time>2013-05-05T10:46:03Z</time>
      </trkpt>
      <trkpt lat="45.90481" lon="6.17438">
        <ele>1133</ele>
        <time>2013-05-05T10:46:20Z</time>
      </trkpt>
      <trkpt lat="45.90474" lon="6.17429">
        <ele>1134</ele>
        <time>2013-05-05T10:46:36Z</time>
      </trkpt>
      <trkpt lat="45.90471" lon="6.17435">
        <ele>1132</ele>
        <time>2013-05-05T10:46:48Z</time>
      </trkpt>
      <trkpt lat="45.9047" lon="6.17436">
        <ele>1136</ele>
        <time>2013-05-05T10:46:49Z</time>
      </trkpt>
      <trkpt lat="45.90469" lon="6.17435">
        <ele>1136</ele>
        <time>2013-05-05T10:46:50Z</time>
      </trkpt>
      <trkpt lat="45.90466" lon="6.17433">
        <ele>1133</ele>
        <time>2013-05-05T10:46:56Z</time>
      </trkpt>
      <trkpt lat="45.90465" lon="6.17432">
        <ele>1138</ele>
        <time>2013-05-05T10:46:57Z</time>
      </trkpt>
      <trkpt lat="45.90465" lon="6.17432">
        <ele>1136</ele>
        <time>2013-05-05T10:47:00Z</time>
      </trkpt>
      <trkpt lat="45.90459" lon="6.17428">
        <ele>1139</ele>
        <time>2013-05-05T10:47:11Z</time>
      </trkpt>
      <trkpt lat="45.9045" lon="6.17426">
        <ele>1137</ele>
        <time>2013-05-05T10:47:23Z</time>
      </trkpt>
      <trkpt lat="45.90446" lon="6.17422">
        <ele>1139</ele>
        <time>2013-05-05T10:47:37Z</time>
      </trkpt>
      <trkpt lat="45.90439" lon="6.17416">
        <ele>1140</ele>
        <time>2013-05-05T10:47:49Z</time>
      </trkpt>
      <trkpt lat="45.90433" lon="6.17414">
        <ele>1144</ele>
        <time>2013-05-05T10:47:59Z</time>
      </trkpt>
      <trkpt lat="45.90432" lon="6.17414">
        <ele>1143</ele>
        <time>2013-05-05T10:48:00Z</time>
      </trkpt>
      <trkpt lat="45.90427" lon="6.17422">
        <ele>1142</ele>
        <time>2013-05-05T10:48:12Z</time>
      </trkpt>
      <trkpt lat="45.90426" lon="6.17418">
        <ele>1145</ele>
        <time>2013-05-05T10:48:26Z</time>
      </trkpt>
      <trkpt lat="45.90422" lon="6.17415">
        <ele>1148</ele>
        <time>2013-05-05T10:48:36Z</time>
      </trkpt>
      <trkpt lat="45.90416" lon="6.17406">
        <ele>1148</ele>
        <time>2013-05-05T10:48:49Z</time>
      </trkpt>
      <trkpt lat="45.90411" lon="6.17399">
        <ele>1151</ele>
        <time>2013-05-05T10:49:03Z</time>
      </trkpt>
      <trkpt lat="45.90404" lon="6.17392">
        <ele>1150</ele>
        <time>2013-05-05T10:49:16Z</time>
      </trkpt>
      <trkpt lat="45.90402" lon="6.17394">
        <ele>1154</ele>
        <time>2013-05-05T10:49:23Z</time>
      </trkpt>
      <trkpt lat="45.90395" lon="6.17394">
        <ele>1150</ele>
        <time>2013-05-05T10:49:32Z</time>
      </trkpt>
      <trkpt lat="45.90393" lon="6.17394">
        <ele>1153</ele>
        <time>2013-05-05T10:49:34Z</time>
      </trkpt>
      <trkpt lat="45.90392" lon="6.17395">
        <ele>1150</ele>
        <time>2013-05-05T10:49:35Z</time>
      </trkpt>
      <trkpt lat="45.90387" lon="6.17398">
        <ele>1153</ele>
        <time>2013-05-05T10:49:42Z</time>
      </trkpt>
      <trkpt lat="45.9038" lon="6.17403">
        <ele>1156</ele>
        <time>2013-05-05T10:49:55Z</time>
      </trkpt>
      <trkpt lat="45.90379" lon="6.17404">
        <ele>1154</ele>
        <time>2013-05-05T10:49:56Z</time>
      </trkpt>
      <trkpt lat="45.90375" lon="6.17412">
        <ele>1158</ele>
        <time>2013-05-05T10:50:09Z</time>
      </trkpt>
      <trkpt lat="45.90374" lon="6.17413">
        <ele>1158</ele>
        <time>2013-05-05T10:50:15Z</time>
      </trkpt>
      <trkpt lat="45.90372" lon="6.17405">
        <ele>1159</ele>
        <time>2013-05-05T10:50:27Z</time>
      </trkpt>
      <trkpt lat="45.90372" lon="6.17405">
        <ele>1160</ele>
        <time>2013-05-05T10:50:29Z</time>
      </trkpt>
      <trkpt lat="45.90366" lon="6.17401">
        <ele>1162</ele>
        <time>2013-05-05T10:50:41Z</time>
      </trkpt>
      <trkpt lat="45.90359" lon="6.17397">
        <ele>1161</ele>
        <time>2013-05-05T10:50:50Z</time>
      </trkpt>
      <trkpt lat="45.90357" lon="6.17397">
        <ele>1163</ele>
        <time>2013-05-05T10:50:53Z</time>
      </trkpt>
      <trkpt lat="45.90353" lon="6.17396">
        <ele>1163</ele>
        <time>2013-05-05T10:50:58Z</time>
      </trkpt>
      <trkpt lat="45.90351" lon="6.17396">
        <ele>1162</ele>
        <time>2013-05-05T10:51:00Z</time>
      </trkpt>
      <trkpt lat="45.90346" lon="6.17397">
        <ele>1162</ele>
        <time>2013-05-05T10:51:15Z</time>
      </trkpt>
      <trkpt lat="45.90345" lon="6.17398">
        <ele>1166</ele>
        <time>2013-05-05T10:51:16Z</time>
      </trkpt>
      <trkpt lat="45.90339" lon="6.17405">
        <ele>1165</ele>
        <time>2013-05-05T10:51:28Z</time>
      </trkpt>
      <trkpt lat="45.90339" lon="6.17406">
        <ele>1169</ele>
        <time>2013-05-05T10:51:29Z</time>
      </trkpt>
      <trkpt lat="45.90337" lon="6.17409">
        <ele>1169</ele>
        <time>2013-05-05T10:51:34Z</time>
      </trkpt>
      <trkpt lat="45.90331" lon="6.17419">
        <ele>1172</ele>
        <time>2013-05-05T10:51:44Z</time>
      </trkpt>
      <trkpt lat="45.9033" lon="6.17424">
        <ele>1172</ele>
        <time>2013-05-05T10:51:51Z</time>
      </trkpt>
      <trkpt lat="45.90325" lon="6.17431">
        <ele>1173</ele>
        <time>2013-05-05T10:52:05Z</time>
      </trkpt>
      <trkpt lat="45.90325" lon="6.17435">
        <ele>1173</ele>
        <time>2013-05-05T10:52:09Z</time>
      </trkpt>
      <trkpt lat="45.90325" lon="6.17436">
        <ele>1172</ele>
        <time>2013-05-05T10:52:10Z</time>
      </trkpt>
      <trkpt lat="45.90324" lon="6.17437">
        <ele>1173</ele>
        <time>2013-05-05T10:52:29Z</time>
      </trkpt>
      <trkpt lat="45.90325" lon="6.17439">
        <ele>1173</ele>
        <time>2013-05-05T10:53:05Z</time>
      </trkpt>
      <trkpt lat="45.90325" lon="6.17442">
        <ele>1170</ele>
        <time>2013-05-05T10:53:33Z</time>
      </trkpt>
      <trkpt lat="45.90325" lon="6.17438">
        <ele>1174</ele>
        <time>2013-05-05T10:53:51Z</time>
      </trkpt>
      <trkpt lat="45.90327" lon="6.17436">
        <ele>1173</ele>
        <time>2013-05-05T10:54:29Z</time>
      </trkpt>
      <trkpt lat="45.90328" lon="6.17436">
        <ele>1174</ele>
        <time>2013-05-05T10:54:59Z</time>
      </trkpt>
      <trkpt lat="45.90328" lon="6.17439">
        <ele>1174</ele>
        <time>2013-05-05T10:55:31Z</time>
      </trkpt>
      <trkpt lat="45.90326" lon="6.1744">
        <ele>1173</ele>
        <time>2013-05-05T10:56:16Z</time>
      </trkpt>
      <trkpt lat="45.90323" lon="6.17437">
        <ele>1172</ele>
        <time>2013-05-05T10:57:00Z</time>
      </trkpt>
      <trkpt lat="45.90325" lon="6.17438">
        <ele>1172</ele>
        <time>2013-05-05T10:57:07Z</time>
      </trkpt>
      <trkpt lat="45.90326" lon="6.17441">
        <ele>1173</ele>
        <time>2013-05-05T10:57:21Z</time>
      </trkpt>
      <trkpt lat="45.9033" lon="6.17447">
        <ele>1175</ele>
        <time>2013-05-05T10:57:51Z</time>
      </trkpt>
      <trkpt lat="45.9033" lon="6.17446">
        <ele>1174</ele>
        <time>2013-05-05T10:58:14Z</time>
      </trkpt>
      <trkpt lat="45.90328" lon="6.17447">
        <ele>1173</ele>
        <time>2013-05-05T10:58:41Z</time>
      </trkpt>
      <trkpt lat="45.90327" lon="6.17448">
        <ele>1173</ele>
        <time>2013-05-05T10:59:04Z</time>
      </trkpt>
      <trkpt lat="45.90327" lon="6.17448">
        <ele>1172</ele>
        <time>2013-05-05T10:59:57Z</time>
      </trkpt>
      <trkpt lat="45.90327" lon="6.17444">
        <ele>1173</ele>
        <time>2013-05-05T11:00:29Z</time>
      </trkpt>
      <trkpt lat="45.90328" lon="6.17444">
        <ele>1173</ele>
        <time>2013-05-05T11:01:00Z</time>
      </trkpt>
      <trkpt lat="45.90328" lon="6.17444">
        <ele>1172</ele>
        <time>2013-05-05T11:01:03Z</time>
      </trkpt>
      <trkpt lat="45.90328" lon="6.17445">
        <ele>1172</ele>
        <time>2013-05-05T11:01:24Z</time>
      </trkpt>
      <trkpt lat="45.90327" lon="6.17447">
        <ele>1172</ele>
        <time>2013-05-05T11:01:36Z</time>
      </trkpt>
      <trkpt lat="45.90328" lon="6.17449">
        <ele>1173</ele>
        <time>2013-05-05T11:01:39Z</time>
      </trkpt>
      <trkpt lat="45.90329" lon="6.17451">
        <ele>1172</ele>
        <time>2013-05-05T11:01:41Z</time>
      </trkpt>
      <trkpt lat="45.90331" lon="6.17461">
        <ele>1173</ele>
        <time>2013-05-05T11:01:49Z</time>
      </trkpt>
      <trkpt lat="45.90332" lon="6.17473">
        <ele>1175</ele>
        <time>2013-05-05T11:01:58Z</time>
      </trkpt>
      <trkpt lat="45.90333" lon="6.17491">
        <ele>1177</ele>
        <time>2013-05-05T11:02:14Z</time>
      </trkpt>
      <trkpt lat="45.90333" lon="6.17498">
        <ele>1179</ele>
        <time>2013-05-05T11:02:21Z</time>
      </trkpt>
      <trkpt lat="45.90333" lon="6.17506">
        <ele>1181</ele>
        <time>2013-05-05T11:02:31Z</time>
      </trkpt>
      <trkpt lat="45.90332" lon="6.17511">
        <ele>1181</ele>
        <time>2013-05-05T11:02:35Z</time>
      </trkpt>
      <trkpt lat="45.90329" lon="6.17523">
        <ele>1182</ele>
        <time>2013-05-05T11:02:44Z</time>
      </trkpt>
      <trkpt lat="45.90331" lon="6.17534">
        <ele>1184</ele>
        <time>2013-05-05T11:02:52Z</time>
      </trkpt>
      <trkpt lat="45.90336" lon="6.17553">
        <ele>1186</ele>
        <time>2013-05-05T11:03:06Z</time>
      </trkpt>
      <trkpt lat="45.90339" lon="6.17564">
        <ele>1188</ele>
        <time>2013-05-05T11:03:19Z</time>
      </trkpt>
      <trkpt lat="45.90347" lon="6.17565">
        <ele>1191</ele>
        <time>2013-05-05T11:03:28Z</time>
      </trkpt>
      <trkpt lat="45.90354" lon="6.17566">
        <ele>1191</ele>
        <time>2013-05-05T11:03:42Z</time>
      </trkpt>
      <trkpt lat="45.90359" lon="6.17563">
        <ele>1193</ele>
        <time>2013-05-05T11:03:55Z</time>
      </trkpt>
      <trkpt lat="45.90365" lon="6.1756">
        <ele>1196</ele>
        <time>2013-05-05T11:04:08Z</time>
      </trkpt>
      <trkpt lat="45.90367" lon="6.17557">
        <ele>1198</ele>
        <time>2013-05-05T11:04:17Z</time>
      </trkpt>
      <trkpt lat="45.90372" lon="6.17556">
        <ele>1200</ele>
        <time>2013-05-05T11:04:30Z</time>
      </trkpt>
      <trkpt lat="45.90371" lon="6.17561">
        <ele>1199</ele>
        <time>2013-05-05T11:04:41Z</time>
      </trkpt>
      <trkpt lat="45.9037" lon="6.17561">
        <ele>1203</ele>
        <time>2013-05-05T11:04:42Z</time>
      </trkpt>
      <trkpt lat="45.90369" lon="6.17566">
        <ele>1203</ele>
        <time>2013-05-05T11:04:54Z</time>
      </trkpt>
      <trkpt lat="45.90365" lon="6.17575">
        <ele>1204</ele>
        <time>2013-05-05T11:05:08Z</time>
      </trkpt>
      <trkpt lat="45.90363" lon="6.17582">
        <ele>1205</ele>
        <time>2013-05-05T11:05:20Z</time>
      </trkpt>
      <trkpt lat="45.90361" lon="6.17584">
        <ele>1208</ele>
        <time>2013-05-05T11:05:26Z</time>
      </trkpt>
      <trkpt lat="45.90358" lon="6.17586">
        <ele>1207</ele>
        <time>2013-05-05T11:05:40Z</time>
      </trkpt>
      <trkpt lat="45.90358" lon="6.17587">
        <ele>1210</ele>
        <time>2013-05-05T11:05:42Z</time>
      </trkpt>
      <trkpt lat="45.90358" lon="6.17587">
        <ele>1209</ele>
        <time>2013-05-05T11:05:43Z</time>
      </trkpt>
      <trkpt lat="45.90354" lon="6.17594">
        <ele>1210</ele>
        <time>2013-05-05T11:05:56Z</time>
      </trkpt>
      <trkpt lat="45.9035" lon="6.17603">
        <ele>1212</ele>
        <time>2013-05-05T11:06:09Z</time>
      </trkpt>
      <trkpt lat="45.90347" lon="6.17607">
        <ele>1216</ele>
        <time>2013-05-05T11:06:17Z</time>
      </trkpt>
      <trkpt lat="45.90347" lon="6.17607">
        <ele>1213</ele>
        <time>2013-05-05T11:06:19Z</time>
      </trkpt>
      <trkpt lat="45.90343" lon="6.17609">
        <ele>1215</ele>
        <time>2013-05-05T11:06:26Z</time>
      </trkpt>
      <trkpt lat="45.90335" lon="6.17614">
        <ele>1219</ele>
        <time>2013-05-05T11:06:41Z</time>
      </trkpt>
      <trkpt lat="45.90335" lon="6.17615">
        <ele>1215</ele>
        <time>2013-05-05T11:06:43Z</time>
      </trkpt>
      <trkpt lat="45.90332" lon="6.17616">
        <ele>1220</ele>
        <time>2013-05-05T11:06:47Z</time>
      </trkpt>
      <trkpt lat="45.90332" lon="6.17617">
        <ele>1220</ele>
        <time>2013-05-05T11:06:48Z</time>
      </trkpt>
      <trkpt lat="45.90329" lon="6.1762">
        <ele>1220</ele>
        <time>2013-05-05T11:06:56Z</time>
      </trkpt>
      <trkpt lat="45.90321" lon="6.17627">
        <ele>1222</ele>
        <time>2013-05-05T11:07:10Z</time>
      </trkpt>
      <trkpt lat="45.90318" lon="6.17633">
        <ele>1224</ele>
        <time>2013-05-05T11:07:25Z</time>
      </trkpt>
      <trkpt lat="45.90306" lon="6.17645">
        <ele>1226</ele>
        <time>2013-05-05T11:07:41Z</time>
      </trkpt>
      <trkpt lat="45.90303" lon="6.1765">
        <ele>1227</ele>
        <time>2013-05-05T11:07:59Z</time>
      </trkpt>
      <trkpt lat="45.90304" lon="6.17652">
        <ele>1226</ele>
        <time>2013-05-05T11:08:01Z</time>
      </trkpt>
      <trkpt lat="45.90304" lon="6.17654">
        <ele>1225</ele>
        <time>2013-05-05T11:08:05Z</time>
      </trkpt>
      <trkpt lat="45.90303" lon="6.17655">
        <ele>1229</ele>
        <time>2013-05-05T11:08:06Z</time>
      </trkpt>
      <trkpt lat="45.90303" lon="6.17655">
        <ele>1227</ele>
        <time>2013-05-05T11:08:07Z</time>
      </trkpt>
      <trkpt lat="45.903" lon="6.17657">
        <ele>1226</ele>
        <time>2013-05-05T11:08:19Z</time>
      </trkpt>
      <trkpt lat="45.90294" lon="6.17651">
        <ele>1227</ele>
        <time>2013-05-05T11:08:32Z</time>
      </trkpt>
      <trkpt lat="45.90285" lon="6.17653">
        <ele>1228</ele>
        <time>2013-05-05T11:08:44Z</time>
      </trkpt>
      <trkpt lat="45.9028" lon="6.17667">
        <ele>1228</ele>
        <time>2013-05-05T11:08:57Z</time>
      </trkpt>
      <trkpt lat="45.90273" lon="6.17678">
        <ele>1229</ele>
        <time>2013-05-05T11:09:10Z</time>
      </trkpt>
      <trkpt lat="45.90268" lon="6.17689">
        <ele>1229</ele>
        <time>2013-05-05T11:09:22Z</time>
      </trkpt>
      <trkpt lat="45.90268" lon="6.17699">
        <ele>1228</ele>
        <time>2013-05-05T11:09:28Z</time>
      </trkpt>
      <trkpt lat="45.90265" lon="6.17701">
        <ele>1227</ele>
        <time>2013-05-05T11:09:30Z</time>
      </trkpt>
      <trkpt lat="45.90263" lon="6.17704">
        <ele>1227</ele>
        <time>2013-05-05T11:09:33Z</time>
      </trkpt>
      <trkpt lat="45.90253" lon="6.17716">
        <ele>1231</ele>
        <time>2013-05-05T11:09:47Z</time>
      </trkpt>
      <trkpt lat="45.90252" lon="6.17716">
        <ele>1231</ele>
        <time>2013-05-05T11:09:48Z</time>
      </trkpt>
      <trkpt lat="45.90248" lon="6.1772">
        <ele>1232</ele>
        <time>2013-05-05T11:09:54Z</time>
      </trkpt>
      <trkpt lat="45.90246" lon="6.17723">
        <ele>1234</ele>
        <time>2013-05-05T11:10:01Z</time>
      </trkpt>
      <trkpt lat="45.90243" lon="6.17725">
        <ele>1235</ele>
        <time>2013-05-05T11:10:08Z</time>
      </trkpt>
      <trkpt lat="45.9024" lon="6.17728">
        <ele>1236</ele>
        <time>2013-05-05T11:10:13Z</time>
      </trkpt>
      <trkpt lat="45.90236" lon="6.17731">
        <ele>1240</ele>
        <time>2013-05-05T11:10:21Z</time>
      </trkpt>
      <trkpt lat="45.90235" lon="6.17731">
        <ele>1236</ele>
        <time>2013-05-05T11:10:22Z</time>
      </trkpt>
      <trkpt lat="45.90234" lon="6.17739">
        <ele>1240</ele>
        <time>2013-05-05T11:10:27Z</time>
      </trkpt>
      <trkpt lat="45.90232" lon="6.17754">
        <ele>1241</ele>
        <time>2013-05-05T11:10:39Z</time>
      </trkpt>
      <trkpt lat="45.9023" lon="6.17762">
        <ele>1241</ele>
        <time>2013-05-05T11:10:46Z</time>
      </trkpt>
      <trkpt lat="45.90227" lon="6.17766">
        <ele>1241</ele>
        <time>2013-05-05T11:10:51Z</time>
      </trkpt>
      <trkpt lat="45.90219" lon="6.17777">
        <ele>1243</ele>
        <time>2013-05-05T11:11:05Z</time>
      </trkpt>
      <trkpt lat="45.90218" lon="6.17789">
        <ele>1243</ele>
        <time>2013-05-05T11:11:15Z</time>
      </trkpt>
      <trkpt lat="45.90226" lon="6.17801">
        <ele>1243</ele>
        <time>2013-05-05T11:11:30Z</time>
      </trkpt>
      <trkpt lat="45.90231" lon="6.17807">
        <ele>1245</ele>
        <time>2013-05-05T11:11:46Z</time>
      </trkpt>
      <trkpt lat="45.90231" lon="6.17811">
        <ele>1249</ele>
        <time>2013-05-05T11:11:59Z</time>
      </trkpt>
      <trkpt lat="45.90231" lon="6.17811">
        <ele>1245</ele>
        <time>2013-05-05T11:12:02Z</time>
      </trkpt>
      <trkpt lat="45.90231" lon="6.17812">
        <ele>1250</ele>
        <time>2013-05-05T11:12:03Z</time>
      </trkpt>
      <trkpt lat="45.90232" lon="6.17821">
        <ele>1251</ele>
        <time>2013-05-05T11:12:15Z</time>
      </trkpt>
      <trkpt lat="45.90231" lon="6.17823">
        <ele>1253</ele>
        <time>2013-05-05T11:12:27Z</time>
      </trkpt>
      <trkpt lat="45.90232" lon="6.1783">
        <ele>1254</ele>
        <time>2013-05-05T11:12:37Z</time>
      </trkpt>
      <trkpt lat="45.9023" lon="6.17831">
        <ele>1256</ele>
        <time>2013-05-05T11:12:47Z</time>
      </trkpt>
      <trkpt lat="45.90219" lon="6.17836">
        <ele>1258</ele>
        <time>2013-05-05T11:13:02Z</time>
      </trkpt>
      <trkpt lat="45.90212" lon="6.17843">
        <ele>1260</ele>
        <time>2013-05-05T11:13:18Z</time>
      </trkpt>
      <trkpt lat="45.90211" lon="6.17852">
        <ele>1258</ele>
        <time>2013-05-05T11:13:35Z</time>
      </trkpt>
      <trkpt lat="45.90209" lon="6.17857">
        <ele>1258</ele>
        <time>2013-05-05T11:13:52Z</time>
      </trkpt>
      <trkpt lat="45.90208" lon="6.17863">
        <ele>1255</ele>
        <time>2013-05-05T11:14:08Z</time>
      </trkpt>
      <trkpt lat="45.90204" lon="6.17868">
        <ele>1253</ele>
        <time>2013-05-05T11:14:19Z</time>
      </trkpt>
      <trkpt lat="45.90203" lon="6.17868">
        <ele>1252</ele>
        <time>2013-05-05T11:14:20Z</time>
      </trkpt>
      <trkpt lat="45.90203" lon="6.17876">
        <ele>1250</ele>
        <time>2013-05-05T11:14:31Z</time>
      </trkpt>
      <trkpt lat="45.90209" lon="6.17886">
        <ele>1250</ele>
        <time>2013-05-05T11:14:43Z</time>
      </trkpt>
      <trkpt lat="45.90204" lon="6.1789">
        <ele>1252</ele>
        <time>2013-05-05T11:14:50Z</time>
      </trkpt>
      <trkpt lat="45.902" lon="6.17893">
        <ele>1255</ele>
        <time>2013-05-05T11:14:57Z</time>
      </trkpt>
      <trkpt lat="45.90197" lon="6.17897">
        <ele>1255</ele>
        <time>2013-05-05T11:15:02Z</time>
      </trkpt>
      <trkpt lat="45.90191" lon="6.17905">
        <ele>1255</ele>
        <time>2013-05-05T11:15:13Z</time>
      </trkpt>
      <trkpt lat="45.9019" lon="6.17916">
        <ele>1257</ele>
        <time>2013-05-05T11:15:27Z</time>
      </trkpt>
      <trkpt lat="45.90188" lon="6.17928">
        <ele>1258</ele>
        <time>2013-05-05T11:15:40Z</time>
      </trkpt>
      <trkpt lat="45.90188" lon="6.17929">
        <ele>1258</ele>
        <time>2013-05-05T11:15:41Z</time>
      </trkpt>
      <trkpt lat="45.90191" lon="6.17947">
        <ele>1257</ele>
        <time>2013-05-05T11:15:54Z</time>
      </trkpt>
      <trkpt lat="45.90197" lon="6.17963">
        <ele>1257</ele>
        <time>2013-05-05T11:16:07Z</time>
      </trkpt>
      <trkpt lat="45.90195" lon="6.17965">
        <ele>1257</ele>
        <time>2013-05-05T11:16:10Z</time>
      </trkpt>
      <trkpt lat="45.90193" lon="6.17967">
        <ele>1256</ele>
        <time>2013-05-05T11:16:14Z</time>
      </trkpt>
      <trkpt lat="45.90193" lon="6.17969">
        <ele>1259</ele>
        <time>2013-05-05T11:16:15Z</time>
      </trkpt>
      <trkpt lat="45.90193" lon="6.17969">
        <ele>1258</ele>
        <time>2013-05-05T11:16:16Z</time>
      </trkpt>
      <trkpt lat="45.90191" lon="6.17982">
        <ele>1257</ele>
        <time>2013-05-05T11:16:27Z</time>
      </trkpt>
      <trkpt lat="45.90187" lon="6.17989">
        <ele>1256</ele>
        <time>2013-05-05T11:16:38Z</time>
      </trkpt>
      <trkpt lat="45.90178" lon="6.18004">
        <ele>1255</ele>
        <time>2013-05-05T11:16:51Z</time>
      </trkpt>
      <trkpt lat="45.90175" lon="6.1801">
        <ele>1257</ele>
        <time>2013-05-05T11:17:02Z</time>
      </trkpt>
      <trkpt lat="45.90174" lon="6.18011">
        <ele>1256</ele>
        <time>2013-05-05T11:17:04Z</time>
      </trkpt>
      <trkpt lat="45.90169" lon="6.18018">
        <ele>1257</ele>
        <time>2013-05-05T11:17:17Z</time>
      </trkpt>
      <trkpt lat="45.90161" lon="6.18022">
        <ele>1255</ele>
        <time>2013-05-05T11:17:31Z</time>
      </trkpt>
      <trkpt lat="45.90157" lon="6.18023">
        <ele>1253</ele>
        <time>2013-05-05T11:17:37Z</time>
      </trkpt>
      <trkpt lat="45.90155" lon="6.18023">
        <ele>1252</ele>
        <time>2013-05-05T11:17:40Z</time>
      </trkpt>
      <trkpt lat="45.90143" lon="6.18026">
        <ele>1252</ele>
        <time>2013-05-05T11:17:51Z</time>
      </trkpt>
      <trkpt lat="45.90132" lon="6.18035">
        <ele>1252</ele>
        <time>2013-05-05T11:18:05Z</time>
      </trkpt>
      <trkpt lat="45.90124" lon="6.18046">
        <ele>1253</ele>
        <time>2013-05-05T11:18:17Z</time>
      </trkpt>
      <trkpt lat="45.90121" lon="6.18049">
        <ele>1253</ele>
        <time>2013-05-05T11:18:22Z</time>
      </trkpt>
      <trkpt lat="45.90115" lon="6.18056">
        <ele>1255</ele>
        <time>2013-05-05T11:18:33Z</time>
      </trkpt>
      <trkpt lat="45.9011" lon="6.18068">
        <ele>1256</ele>
        <time>2013-05-05T11:18:46Z</time>
      </trkpt>
      <trkpt lat="45.9011" lon="6.18078">
        <ele>1258</ele>
        <time>2013-05-05T11:18:57Z</time>
      </trkpt>
      <trkpt lat="45.90113" lon="6.18083">
        <ele>1260</ele>
        <time>2013-05-05T11:19:04Z</time>
      </trkpt>
      <trkpt lat="45.90119" lon="6.18088">
        <ele>1259</ele>
        <time>2013-05-05T11:19:10Z</time>
      </trkpt>
      <trkpt lat="45.90122" lon="6.181">
        <ele>1262</ele>
        <time>2013-05-05T11:19:24Z</time>
      </trkpt>
      <trkpt lat="45.90122" lon="6.18101">
        <ele>1265</ele>
        <time>2013-05-05T11:19:38Z</time>
      </trkpt>
      <trkpt lat="45.90122" lon="6.18101">
        <ele>1264</ele>
        <time>2013-05-05T11:19:39Z</time>
      </trkpt>
      <trkpt lat="45.90118" lon="6.18101">
        <ele>1267</ele>
        <time>2013-05-05T11:19:46Z</time>
      </trkpt>
      <trkpt lat="45.90112" lon="6.18103">
        <ele>1268</ele>
        <time>2013-05-05T11:19:59Z</time>
      </trkpt>
      <trkpt lat="45.90109" lon="6.18108">
        <ele>1271</ele>
        <time>2013-05-05T11:20:10Z</time>
      </trkpt>
      <trkpt lat="45.90111" lon="6.18112">
        <ele>1271</ele>
        <time>2013-05-05T11:20:14Z</time>
      </trkpt>
      <trkpt lat="45.90111" lon="6.18113">
        <ele>1271</ele>
        <time>2013-05-05T11:20:16Z</time>
      </trkpt>
      <trkpt lat="45.90111" lon="6.18121">
        <ele>1271</ele>
        <time>2013-05-05T11:20:24Z</time>
      </trkpt>
      <trkpt lat="45.90106" lon="6.1813">
        <ele>1272</ele>
        <time>2013-05-05T11:20:37Z</time>
      </trkpt>
      <trkpt lat="45.90103" lon="6.18136">
        <ele>1275</ele>
        <time>2013-05-05T11:20:46Z</time>
      </trkpt>
      <trkpt lat="45.90103" lon="6.18136">
        <ele>1275</ele>
        <time>2013-05-05T11:20:47Z</time>
      </trkpt>
      <trkpt lat="45.90103" lon="6.1814">
        <ele>1275</ele>
        <time>2013-05-05T11:20:57Z</time>
      </trkpt>
      <trkpt lat="45.90103" lon="6.18148">
        <ele>1276</ele>
        <time>2013-05-05T11:21:10Z</time>
      </trkpt>
      <trkpt lat="45.90103" lon="6.18149">
        <ele>1276</ele>
        <time>2013-05-05T11:21:11Z</time>
      </trkpt>
      <trkpt lat="45.90097" lon="6.18161">
        <ele>1279</ele>
        <time>2013-05-05T11:21:26Z</time>
      </trkpt>
      <trkpt lat="45.90096" lon="6.18162">
        <ele>1276</ele>
        <time>2013-05-05T11:21:28Z</time>
      </trkpt>
      <trkpt lat="45.90094" lon="6.18164">
        <ele>1278</ele>
        <time>2013-05-05T11:21:31Z</time>
      </trkpt>
      <trkpt lat="45.90093" lon="6.18165">
        <ele>1276</ele>
        <time>2013-05-05T11:21:33Z</time>
      </trkpt>
      <trkpt lat="45.9009" lon="6.1817">
        <ele>1275</ele>
        <time>2013-05-05T11:21:39Z</time>
      </trkpt>
      <trkpt lat="45.9009" lon="6.18172">
        <ele>1278</ele>
        <time>2013-05-05T11:21:40Z</time>
      </trkpt>
      <trkpt lat="45.9009" lon="6.18173">
        <ele>1276</ele>
        <time>2013-05-05T11:21:41Z</time>
      </trkpt>
      <trkpt lat="45.90087" lon="6.18186">
        <ele>1277</ele>
        <time>2013-05-05T11:21:54Z</time>
      </trkpt>
      <trkpt lat="45.90086" lon="6.1819">
        <ele>1277</ele>
        <time>2013-05-05T11:21:59Z</time>
      </trkpt>
      <trkpt lat="45.90085" lon="6.18191">
        <ele>1276</ele>
        <time>2013-05-05T11:22:02Z</time>
      </trkpt>
      <trkpt lat="45.90084" lon="6.18193">
        <ele>1279</ele>
        <time>2013-05-05T11:22:04Z</time>
      </trkpt>
      <trkpt lat="45.90083" lon="6.18193">
        <ele>1277</ele>
        <time>2013-05-05T11:22:07Z</time>
      </trkpt>
      <trkpt lat="45.90082" lon="6.18195">
        <ele>1280</ele>
        <time>2013-05-05T11:22:11Z</time>
      </trkpt>
      <trkpt lat="45.90082" lon="6.18196">
        <ele>1275</ele>
        <time>2013-05-05T11:22:12Z</time>
      </trkpt>
      <trkpt lat="45.90082" lon="6.18196">
        <ele>1281</ele>
        <time>2013-05-05T11:22:13Z</time>
      </trkpt>
      <trkpt lat="45.90081" lon="6.18198">
        <ele>1275</ele>
        <time>2013-05-05T11:22:15Z</time>
      </trkpt>
      <trkpt lat="45.90081" lon="6.18199">
        <ele>1280</ele>
        <time>2013-05-05T11:22:16Z</time>
      </trkpt>
      <trkpt lat="45.90076" lon="6.18211">
        <ele>1280</ele>
        <time>2013-05-05T11:22:29Z</time>
      </trkpt>
      <trkpt lat="45.90077" lon="6.18222">
        <ele>1278</ele>
        <time>2013-05-05T11:22:39Z</time>
      </trkpt>
      <trkpt lat="45.90074" lon="6.18228">
        <ele>1279</ele>
        <time>2013-05-05T11:22:45Z</time>
      </trkpt>
      <trkpt lat="45.90072" lon="6.18233">
        <ele>1281</ele>
        <time>2013-05-05T11:22:55Z</time>
      </trkpt>
      <trkpt lat="45.90074" lon="6.18244">
        <ele>1284</ele>
        <time>2013-05-05T11:23:07Z</time>
      </trkpt>
      <trkpt lat="45.90073" lon="6.18245">
        <ele>1284</ele>
        <time>2013-05-05T11:23:11Z</time>
      </trkpt>
      <trkpt lat="45.9007" lon="6.18249">
        <ele>1285</ele>
        <time>2013-05-05T11:23:22Z</time>
      </trkpt>
      <trkpt lat="45.90065" lon="6.18252">
        <ele>1288</ele>
        <time>2013-05-05T11:23:37Z</time>
      </trkpt>
      <trkpt lat="45.90064" lon="6.18258">
        <ele>1289</ele>
        <time>2013-05-05T11:24:32Z</time>
      </trkpt>
      <trkpt lat="45.90064" lon="6.18259">
        <ele>1289</ele>
        <time>2013-05-05T11:25:10Z</time>
      </trkpt>
      <trkpt lat="45.90064" lon="6.18259">
        <ele>1286</ele>
        <time>2013-05-05T11:25:11Z</time>
      </trkpt>
      <trkpt lat="45.90064" lon="6.18259">
        <ele>1290</ele>
        <time>2013-05-05T11:25:12Z</time>
      </trkpt>
      <trkpt lat="45.90062" lon="6.18256">
        <ele>1288</ele>
        <time>2013-05-05T11:26:02Z</time>
      </trkpt>
      <trkpt lat="45.90063" lon="6.18258">
        <ele>1288</ele>
        <time>2013-05-05T11:26:34Z</time>
      </trkpt>
      <trkpt lat="45.90063" lon="6.18257">
        <ele>1288</ele>
        <time>2013-05-05T11:27:18Z</time>
      </trkpt>
      <trkpt lat="45.90062" lon="6.1826">
        <ele>1287</ele>
        <time>2013-05-05T11:27:42Z</time>
      </trkpt>
      <trkpt lat="45.90061" lon="6.1826">
        <ele>1288</ele>
        <time>2013-05-05T11:28:22Z</time>
      </trkpt>
      <trkpt lat="45.90053" lon="6.18268">
        <ele>1287</ele>
        <time>2013-05-05T11:28:36Z</time>
      </trkpt>
      <trkpt lat="45.90047" lon="6.18277">
        <ele>1285</ele>
        <time>2013-05-05T11:28:50Z</time>
      </trkpt>
      <trkpt lat="45.90042" lon="6.18287">
        <ele>1283</ele>
        <time>2013-05-05T11:29:03Z</time>
      </trkpt>
      <trkpt lat="45.90035" lon="6.18295">
        <ele>1282</ele>
        <time>2013-05-05T11:29:18Z</time>
      </trkpt>
      <trkpt lat="45.90026" lon="6.18301">
        <ele>1281</ele>
        <time>2013-05-05T11:29:27Z</time>
      </trkpt>
      <trkpt lat="45.90017" lon="6.18309">
        <ele>1280</ele>
        <time>2013-05-05T11:29:40Z</time>
      </trkpt>
      <trkpt lat="45.9001" lon="6.18315">
        <ele>1277</ele>
        <time>2013-05-05T11:29:50Z</time>
      </trkpt>
      <trkpt lat="45.9" lon="6.18329">
        <ele>1273</ele>
        <time>2013-05-05T11:30:04Z</time>
      </trkpt>
      <trkpt lat="45.89999" lon="6.1833">
        <ele>1273</ele>
        <time>2013-05-05T11:30:05Z</time>
      </trkpt>
      <trkpt lat="45.89999" lon="6.18336">
        <ele>1274</ele>
        <time>2013-05-05T11:30:11Z</time>
      </trkpt>
      <trkpt lat="45.89998" lon="6.18344">
        <ele>1272</ele>
        <time>2013-05-05T11:30:16Z</time>
      </trkpt>
      <trkpt lat="45.89995" lon="6.18356">
        <ele>1272</ele>
        <time>2013-05-05T11:30:27Z</time>
      </trkpt>
      <trkpt lat="45.89983" lon="6.18369">
        <ele>1271</ele>
        <time>2013-05-05T11:30:41Z</time>
      </trkpt>
      <trkpt lat="45.8997" lon="6.18377">
        <ele>1271</ele>
        <time>2013-05-05T11:30:55Z</time>
      </trkpt>
      <trkpt lat="45.89962" lon="6.18393">
        <ele>1269</ele>
        <time>2013-05-05T11:31:10Z</time>
      </trkpt>
      <trkpt lat="45.89958" lon="6.18399">
        <ele>1269</ele>
        <time>2013-05-05T11:31:19Z</time>
      </trkpt>
      <trkpt lat="45.89953" lon="6.18406">
        <ele>1269</ele>
        <time>2013-05-05T11:31:32Z</time>
      </trkpt>
      <trkpt lat="45.89951" lon="6.18407">
        <ele>1267</ele>
        <time>2013-05-05T11:31:35Z</time>
      </trkpt>
      <trkpt lat="45.89949" lon="6.18408">
        <ele>1269</ele>
        <time>2013-05-05T11:31:39Z</time>
      </trkpt>
      <trkpt lat="45.89942" lon="6.18416">
        <ele>1267</ele>
        <time>2013-05-05T11:31:50Z</time>
      </trkpt>
      <trkpt lat="45.89936" lon="6.18426">
        <ele>1266</ele>
        <time>2013-05-05T11:32:04Z</time>
      </trkpt>
      <trkpt lat="45.89932" lon="6.1843">
        <ele>1268</ele>
        <time>2013-05-05T11:32:13Z</time>
      </trkpt>
      <trkpt lat="45.8993" lon="6.18431">
        <ele>1268</ele>
        <time>2013-05-05T11:32:16Z</time>
      </trkpt>
      <trkpt lat="45.89925" lon="6.18431">
        <ele>1266</ele>
        <time>2013-05-05T11:32:21Z</time>
      </trkpt>
      <trkpt lat="45.89921" lon="6.18435">
        <ele>1269</ele>
        <time>2013-05-05T11:32:27Z</time>
      </trkpt>
      <trkpt lat="45.89906" lon="6.18446">
        <ele>1267</ele>
        <time>2013-05-05T11:32:43Z</time>
      </trkpt>
      <trkpt lat="45.89906" lon="6.18452">
        <ele>1269</ele>
        <time>2013-05-05T11:32:52Z</time>
      </trkpt>
      <trkpt lat="45.89896" lon="6.18457">
        <ele>1269</ele>
        <time>2013-05-05T11:33:03Z</time>
      </trkpt>
      <trkpt lat="45.89893" lon="6.18461">
        <ele>1269</ele>
        <time>2013-05-05T11:33:08Z</time>
      </trkpt>
      <trkpt lat="45.89884" lon="6.18464">
        <ele>1270</ele>
        <time>2013-05-05T11:33:22Z</time>
      </trkpt>
      <trkpt lat="45.89874" lon="6.18473">
        <ele>1272</ele>
        <time>2013-05-05T11:33:39Z</time>
      </trkpt>
      <trkpt lat="45.89872" lon="6.18475">
        <ele>1271</ele>
        <time>2013-05-05T11:33:42Z</time>
      </trkpt>
      <trkpt lat="45.89869" lon="6.18475">
        <ele>1271</ele>
        <time>2013-05-05T11:33:44Z</time>
      </trkpt>
      <trkpt lat="45.89865" lon="6.18476">
        <ele>1270</ele>
        <time>2013-05-05T11:33:49Z</time>
      </trkpt>
      <trkpt lat="45.89857" lon="6.18485">
        <ele>1271</ele>
        <time>2013-05-05T11:34:01Z</time>
      </trkpt>
      <trkpt lat="45.89853" lon="6.18491">
        <ele>1271</ele>
        <time>2013-05-05T11:34:11Z</time>
      </trkpt>
      <trkpt lat="45.89851" lon="6.18496">
        <ele>1275</ele>
        <time>2013-05-05T11:34:23Z</time>
      </trkpt>
      <trkpt lat="45.89848" lon="6.18498">
        <ele>1274</ele>
        <time>2013-05-05T11:34:30Z</time>
      </trkpt>
      <trkpt lat="45.89838" lon="6.18502">
        <ele>1275</ele>
        <time>2013-05-05T11:34:42Z</time>
      </trkpt>
      <trkpt lat="45.89832" lon="6.18502">
        <ele>1275</ele>
        <time>2013-05-05T11:34:54Z</time>
      </trkpt>
      <trkpt lat="45.89825" lon="6.18508">
        <ele>1276</ele>
        <time>2013-05-05T11:35:04Z</time>
      </trkpt>
      <trkpt lat="45.89818" lon="6.18514">
        <ele>1275</ele>
        <time>2013-05-05T11:35:16Z</time>
      </trkpt>
      <trkpt lat="45.89811" lon="6.18521">
        <ele>1274</ele>
        <time>2013-05-05T11:35:27Z</time>
      </trkpt>
      <trkpt lat="45.89807" lon="6.18524">
        <ele>1272</ele>
        <time>2013-05-05T11:35:33Z</time>
      </trkpt>
      <trkpt lat="45.898" lon="6.18525">
        <ele>1273</ele>
        <time>2013-05-05T11:35:42Z</time>
      </trkpt>
      <trkpt lat="45.89797" lon="6.18524">
        <ele>1275</ele>
        <time>2013-05-05T11:35:48Z</time>
      </trkpt>
      <trkpt lat="45.8979" lon="6.18525">
        <ele>1275</ele>
        <time>2013-05-05T11:35:58Z</time>
      </trkpt>
      <trkpt lat="45.89786" lon="6.18527">
        <ele>1279</ele>
        <time>2013-05-05T11:36:15Z</time>
      </trkpt>
      <trkpt lat="45.89776" lon="6.18533">
        <ele>1278</ele>
        <time>2013-05-05T11:36:30Z</time>
      </trkpt>
      <trkpt lat="45.89768" lon="6.18534">
        <ele>1278</ele>
        <time>2013-05-05T11:36:42Z</time>
      </trkpt>
      <trkpt lat="45.89759" lon="6.18539">
        <ele>1276</ele>
        <time>2013-05-05T11:36:53Z</time>
      </trkpt>
      <trkpt lat="45.89754" lon="6.18543">
        <ele>1277</ele>
        <time>2013-05-05T11:37:01Z</time>
      </trkpt>
      <trkpt lat="45.8975" lon="6.18544">
        <ele>1281</ele>
        <time>2013-05-05T11:37:08Z</time>
      </trkpt>
      <trkpt lat="45.8975" lon="6.18544">
        <ele>1280</ele>
        <time>2013-05-05T11:37:09Z</time>
      </trkpt>
      <trkpt lat="45.89748" lon="6.18551">
        <ele>1283</ele>
        <time>2013-05-05T11:37:20Z</time>
      </trkpt>
      <trkpt lat="45.89747" lon="6.18556">
        <ele>1282</ele>
        <time>2013-05-05T11:37:25Z</time>
      </trkpt>
      <trkpt lat="45.89746" lon="6.18557">
        <ele>1281</ele>
        <time>2013-05-05T11:37:27Z</time>
      </trkpt>
      <trkpt lat="45.89745" lon="6.18559">
        <ele>1282</ele>
        <time>2013-05-05T11:37:29Z</time>
      </trkpt>
      <trkpt lat="45.8974" lon="6.18566">
        <ele>1283</ele>
        <time>2013-05-05T11:37:41Z</time>
      </trkpt>
      <trkpt lat="45.89737" lon="6.18569">
        <ele>1279</ele>
        <time>2013-05-05T11:37:47Z</time>
      </trkpt>
      <trkpt lat="45.89737" lon="6.1857">
        <ele>1279</ele>
        <time>2013-05-05T11:37:48Z</time>
      </trkpt>
      <trkpt lat="45.89737" lon="6.1857">
        <ele>1285</ele>
        <time>2013-05-05T11:37:49Z</time>
      </trkpt>
      <trkpt lat="45.89737" lon="6.1857">
        <ele>1283</ele>
        <time>2013-05-05T11:37:50Z</time>
      </trkpt>
      <trkpt lat="45.89734" lon="6.18575">
        <ele>1285</ele>
        <time>2013-05-05T11:38:03Z</time>
      </trkpt>
      <trkpt lat="45.89733" lon="6.18578">
        <ele>1282</ele>
        <time>2013-05-05T11:38:08Z</time>
      </trkpt>
      <trkpt lat="45.89733" lon="6.18579">
        <ele>1287</ele>
        <time>2013-05-05T11:38:09Z</time>
      </trkpt>
      <trkpt lat="45.89726" lon="6.18581">
        <ele>1286</ele>
        <time>2013-05-05T11:38:20Z</time>
      </trkpt>
      <trkpt lat="45.89721" lon="6.18585">
        <ele>1286</ele>
        <time>2013-05-05T11:38:30Z</time>
      </trkpt>
      <trkpt lat="45.8971" lon="6.18584">
        <ele>1286</ele>
        <time>2013-05-05T11:38:42Z</time>
      </trkpt>
      <trkpt lat="45.89703" lon="6.18588">
        <ele>1287</ele>
        <time>2013-05-05T11:38:51Z</time>
      </trkpt>
      <trkpt lat="45.89692" lon="6.1859">
        <ele>1286</ele>
        <time>2013-05-05T11:39:03Z</time>
      </trkpt>
      <trkpt lat="45.89688" lon="6.18594">
        <ele>1287</ele>
        <time>2013-05-05T11:39:17Z</time>
      </trkpt>
      <trkpt lat="45.89682" lon="6.18596">
        <ele>1287</ele>
        <time>2013-05-05T11:39:43Z</time>
      </trkpt>
      <trkpt lat="45.8968" lon="6.18599">
        <ele>1286</ele>
        <time>2013-05-05T11:40:06Z</time>
      </trkpt>
      <trkpt lat="45.89679" lon="6.18602">
        <ele>1284</ele>
        <time>2013-05-05T11:40:27Z</time>
      </trkpt>
      <trkpt lat="45.89676" lon="6.186">
        <ele>1284</ele>
        <time>2013-05-05T11:40:44Z</time>
      </trkpt>
      <trkpt lat="45.89676" lon="6.18601">
        <ele>1283</ele>
        <time>2013-05-05T11:41:11Z</time>
      </trkpt>
      <trkpt lat="45.89675" lon="6.18601">
        <ele>1282</ele>
        <time>2013-05-05T11:41:26Z</time>
      </trkpt>
      <trkpt lat="45.89673" lon="6.18599">
        <ele>1282</ele>
        <time>2013-05-05T11:41:55Z</time>
      </trkpt>
      <trkpt lat="45.89673" lon="6.18601">
        <ele>1281</ele>
        <time>2013-05-05T11:42:26Z</time>
      </trkpt>
      <trkpt lat="45.89674" lon="6.18601">
        <ele>1281</ele>
        <time>2013-05-05T11:42:45Z</time>
      </trkpt>
      <trkpt lat="45.89673" lon="6.186">
        <ele>1281</ele>
        <time>2013-05-05T11:43:19Z</time>
      </trkpt>
      <trkpt lat="45.89672" lon="6.18599">
        <ele>1280</ele>
        <time>2013-05-05T11:43:42Z</time>
      </trkpt>
    </trkseg>
  </trk>
</gpx>